Time,TemperatureF,DewpointF,PressureIn,WindDirection,WindDirectionDegrees,WindSpeedMPH,WindSpeedGustMPH,Humidity,HourlyPrecipIn,Conditions,Clouds,dailyrainin,SoftwareType,DateUTC
2013-04-17 00:00:00,59.1,57.1,30.11,East,88,1.0,1.0,93,0.00,,,0.37,Wunderground v.1.15,2013-04-17 04:00:00,
2013-04-17 00:01:00,59.1,57.1,30.11,East,88,1.0,1.0,93,0.00,,,0.00,Wunderground v.1.15,2013-04-17 04:01:00,
2013-04-17 00:02:00,59.1,57.1,30.11,East,88,1.0,1.0,93,0.00,,,0.00,Wunderground v.1.15,2013-04-17 04:02:00,
2013-04-17 00:04:00,58.9,56.9,30.11,East,88,1.0,1.0,93,0.00,,,0.00,Wunderground v.1.15,2013-04-17 04:04:00,
2013-04-17 00:07:00,58.9,56.9,30.11,East,88,0.0,1.0,93,0.00,,,0.00,Wunderground v.1.15,2013-04-17 04:07:00,
2013-04-17 00:08:00,58.9,56.9,30.11,East,88,0.0,1.0,93,0.00,,,0.00,Wunderground v.1.15,2013-04-17 04:08:00,
2013-04-17 00:09:00,58.9,56.9,30.11,East,88,0.0,1.0,93,0.00,,,0.00,Wunderground v.1.15,2013-04-17 04:09:00,
2013-04-17 00:12:00,58.9,56.9,30.11,East,88,0.0,0.0,93,0.00,,,0.00,Wunderground v.1.15,2013-04-17 04:12:00,
2013-04-17 00:13:00,58.9,56.9,30.11,East,88,0.0,0.0,93,0.00,,,0.00,Wunderground v.1.15,2013-04-17 04:13:00,
2013-04-17 00:14:00,58.9,56.9,30.11,East,88,0.0,0.0,93,0.00,,,0.00,Wunderground v.1.15,2013-04-17 04:14:00,
2013-04-17 00:15:00,58.9,57.2,30.11,East,88,0.0,0.0,94,0.00,,,0.00,Wunderground v.1.15,2013-04-17 04:15:00,
2013-04-17 00:16:00,58.9,57.2,30.11,East,88,0.0,0.0,94,0.00,,,0.00,Wunderground v.1.15,2013-04-17 04:16:00,
2013-04-17 00:18:00,58.9,57.2,30.11,East,88,0.0,0.0,94,0.00,,,0.00,Wunderground v.1.15,2013-04-17 04:18:00,
2013-04-17 00:19:00,58.9,57.2,30.11,East,88,0.0,0.0,94,0.00,,,0.00,Wunderground v.1.15,2013-04-17 04:19:00,
2013-04-17 00:24:00,58.9,56.9,30.11,East,88,0.0,0.0,93,0.00,,,0.00,Wunderground v.1.15,2013-04-17 04:24:00,
2013-04-17 00:25:00,58.9,56.9,30.11,East,88,0.0,0.0,93,0.00,,,0.00,Wunderground v.1.15,2013-04-17 04:25:00,
2013-04-17 00:26:00,58.9,56.9,30.11,East,88,0.0,0.0,93,0.00,,,0.00,Wunderground v.1.15,2013-04-17 04:26:00,
2013-04-17 00:27:00,58.9,56.9,30.11,East,88,0.0,0.0,93,0.00,,,0.00,Wunderground v.1.15,2013-04-17 04:27:00,
2013-04-17 00:29:00,58.9,57.2,30.11,East,88,0.0,0.0,94,0.00,,,0.00,Wunderground v.1.15,2013-04-17 04:29:00,
2013-04-17 00:30:00,58.9,57.2,30.11,East,88,0.0,0.0,94,0.00,,,0.00,Wunderground v.1.15,2013-04-17 04:30:00,
2013-04-17 00:34:00,58.9,57.2,30.11,East,88,0.0,0.0,94,0.00,,,0.00,Wunderground v.1.15,2013-04-17 04:34:00,
2013-04-17 00:37:00,58.9,57.2,30.11,East,88,0.0,0.0,94,0.00,,,0.00,Wunderground v.1.15,2013-04-17 04:37:00,
2013-04-17 00:39:00,58.9,57.2,30.11,East,88,0.0,0.0,94,0.00,,,0.00,Wunderground v.1.15,2013-04-17 04:39:00,
2013-04-17 00:40:00,58.9,57.2,30.11,East,88,0.0,0.0,94,0.00,,,0.00,Wunderground v.1.15,2013-04-17 04:40:00,
2013-04-17 00:43:00,58.9,57.2,30.11,East,88,0.0,0.0,94,0.00,,,0.00,Wunderground v.1.15,2013-04-17 04:43:00,
2013-04-17 00:44:00,58.9,57.2,30.11,East,88,0.0,0.0,94,0.00,,,0.00,Wunderground v.1.15,2013-04-17 04:44:00,
2013-04-17 00:46:00,58.9,57.2,30.11,East,88,0.0,0.0,94,0.00,,,0.00,Wunderground v.1.15,2013-04-17 04:46:00,
2013-04-17 00:47:00,58.9,57.2,30.11,East,88,0.0,0.0,94,0.00,,,0.00,Wunderground v.1.15,2013-04-17 04:47:00,
2013-04-17 00:48:00,58.9,57.2,30.11,East,88,0.0,0.0,94,0.00,,,0.00,Wunderground v.1.15,2013-04-17 04:48:00,
2013-04-17 00:52:00,58.9,57.2,30.11,East,88,0.0,0.0,94,0.00,,,0.00,Wunderground v.1.15,2013-04-17 04:52:00,
2013-04-17 00:53:00,58.9,57.2,30.11,East,88,0.0,0.0,94,0.00,,,0.00,Wunderground v.1.15,2013-04-17 04:53:00,
2013-04-17 00:55:00,58.9,57.2,30.11,East,88,0.0,0.0,94,0.00,,,0.00,Wunderground v.1.15,2013-04-17 04:55:00,
2013-04-17 00:57:00,58.9,57.2,30.11,East,88,0.0,0.0,94,0.00,,,0.00,Wunderground v.1.15,2013-04-17 04:57:00,
2013-04-17 00:59:00,58.9,57.2,30.11,East,88,0.0,0.0,94,0.00,,,0.00,Wunderground v.1.15,2013-04-17 04:59:00,
2013-04-17 01:02:00,58.9,57.2,30.11,East,88,0.0,0.0,94,0.00,,,0.00,Wunderground v.1.15,2013-04-17 05:02:00,
2013-04-17 01:03:00,58.9,57.2,30.11,East,88,0.0,0.0,94,0.00,,,0.00,Wunderground v.1.15,2013-04-17 05:03:00,
2013-04-17 01:06:00,58.9,57.2,30.11,East,88,0.0,0.0,94,0.00,,,0.00,Wunderground v.1.15,2013-04-17 05:06:00,
2013-04-17 01:07:00,58.9,57.2,30.11,East,88,0.0,0.0,94,0.00,,,0.00,Wunderground v.1.15,2013-04-17 05:07:00,
2013-04-17 01:09:00,58.8,57.1,30.11,East,88,0.0,0.0,94,0.00,,,0.00,Wunderground v.1.15,2013-04-17 05:09:00,
2013-04-17 01:10:00,58.8,57.1,30.11,East,88,0.0,0.0,94,0.00,,,0.00,Wunderground v.1.15,2013-04-17 05:10:00,
2013-04-17 01:12:00,58.8,57.1,30.11,East,88,0.0,0.0,94,0.00,,,0.00,Wunderground v.1.15,2013-04-17 05:12:00,
2013-04-17 01:15:00,58.8,57.1,30.11,East,88,0.0,0.0,94,0.00,,,0.00,Wunderground v.1.15,2013-04-17 05:15:00,
2013-04-17 01:18:00,58.8,57.1,30.11,East,88,0.0,0.0,94,0.00,,,0.00,Wunderground v.1.15,2013-04-17 05:18:00,
2013-04-17 01:19:00,58.8,57.1,30.11,East,88,0.0,0.0,94,0.00,,,0.00,Wunderground v.1.15,2013-04-17 05:19:00,
2013-04-17 01:20:00,58.8,57.1,30.11,East,88,0.0,0.0,94,0.00,,,0.00,Wunderground v.1.15,2013-04-17 05:20:00,
2013-04-17 01:21:00,58.8,57.1,30.11,East,88,0.0,0.0,94,0.00,,,0.00,Wunderground v.1.15,2013-04-17 05:21:00,
2013-04-17 01:23:00,58.8,57.1,30.11,East,88,0.0,0.0,94,0.00,,,0.00,Wunderground v.1.15,2013-04-17 05:23:00,
2013-04-17 01:24:00,58.8,57.1,30.11,East,88,0.0,1.0,94,0.00,,,0.00,Wunderground v.1.15,2013-04-17 05:24:00,
2013-04-17 01:26:00,58.8,57.1,30.11,East,92,0.0,4.0,94,0.00,,,0.00,Wunderground v.1.15,2013-04-17 05:26:00,
2013-04-17 01:28:00,58.8,57.1,30.11,ESE,110,1.0,4.0,94,0.00,,,0.00,Wunderground v.1.15,2013-04-17 05:28:00,
2013-04-17 01:30:00,58.8,57.1,30.09,ESE,116,2.0,4.0,94,0.00,,,0.00,Wunderground v.1.15,2013-04-17 05:30:00,
2013-04-17 01:31:00,58.8,57.1,30.09,ESE,114,2.0,4.0,94,0.00,,,0.00,Wunderground v.1.15,2013-04-17 05:31:00,
2013-04-17 01:32:00,58.8,57.1,30.09,ESE,114,3.0,4.0,94,0.00,,,0.00,Wunderground v.1.15,2013-04-17 05:32:00,
2013-04-17 01:37:00,58.9,57.2,30.09,ESE,114,4.0,7.0,94,0.00,,,0.00,Wunderground v.1.15,2013-04-17 05:37:00,
2013-04-17 01:38:00,58.9,57.2,30.09,ESE,120,5.0,8.0,94,0.00,,,0.00,Wunderground v.1.15,2013-04-17 05:38:00,
2013-04-17 01:39:00,58.9,57.2,30.09,ESE,119,5.0,8.0,94,0.00,,,0.01,Wunderground v.1.15,2013-04-17 05:39:00,
2013-04-17 01:43:00,58.9,57.2,30.09,ESE,119,6.0,11.0,94,0.00,,,0.01,Wunderground v.1.15,2013-04-17 05:43:00,
2013-04-17 01:44:00,58.9,57.2,30.09,ESE,104,7.0,11.0,94,0.00,,,0.01,Wunderground v.1.15,2013-04-17 05:44:00,
2013-04-17 01:45:00,58.9,57.2,30.08,ESE,107,7.0,11.0,94,0.00,,,0.01,Wunderground v.1.15,2013-04-17 05:45:00,
2013-04-17 01:48:00,59.1,57.4,30.08,ESE,113,6.0,11.0,94,0.00,,,0.01,Wunderground v.1.15,2013-04-17 05:48:00,
2013-04-17 01:49:00,59.1,57.4,30.08,North,11,5.0,11.0,94,0.00,,,0.01,Wunderground v.1.15,2013-04-17 05:49:00,
2013-04-17 01:50:00,59.1,57.4,30.08,North,353,5.0,6.0,94,0.00,,,0.01,Wunderground v.1.15,2013-04-17 05:50:00,
2013-04-17 01:53:00,58.9,57.2,30.08,North,356,4.0,6.0,94,0.00,,,0.01,Wunderground v.1.15,2013-04-17 05:53:00,
2013-04-17 01:54:00,58.9,57.2,30.08,NW,315,4.0,6.0,94,0.00,,,0.01,Wunderground v.1.15,2013-04-17 05:54:00,
2013-04-17 01:56:00,58.9,57.2,30.08,North,4,4.0,6.0,94,0.00,,,0.01,Wunderground v.1.15,2013-04-17 05:56:00,
2013-04-17 01:59:00,58.8,57.1,30.08,North,10,4.0,6.0,94,0.00,,,0.01,Wunderground v.1.15,2013-04-17 05:59:00,
2013-04-17 02:00:00,58.6,56.9,30.10,North,3,4.0,4.0,94,0.00,,,0.01,Wunderground v.1.15,2013-04-17 06:00:00,
2013-04-17 02:06:00,58.5,56.8,30.10,NE,51,2.0,4.0,94,0.00,,,0.01,Wunderground v.1.15,2013-04-17 06:06:00,
2013-04-17 02:07:00,58.5,56.8,30.10,NE,51,2.0,4.0,94,0.00,,,0.01,Wunderground v.1.15,2013-04-17 06:07:00,
2013-04-17 02:08:00,58.5,56.8,30.10,NE,51,1.0,4.0,94,0.00,,,0.01,Wunderground v.1.15,2013-04-17 06:08:00,
2013-04-17 02:11:00,58.3,56.6,30.10,NE,52,1.0,1.0,94,0.00,,,0.01,Wunderground v.1.15,2013-04-17 06:11:00,
2013-04-17 02:12:00,58.3,56.6,30.10,NE,52,1.0,1.0,94,0.00,,,0.01,Wunderground v.1.15,2013-04-17 06:12:00,
2013-04-17 02:13:00,58.3,56.6,30.10,NE,52,1.0,1.0,94,0.00,,,0.01,Wunderground v.1.15,2013-04-17 06:13:00,
2013-04-17 02:15:00,58.3,56.6,30.11,NE,52,0.0,1.0,94,0.00,,,0.01,Wunderground v.1.15,2013-04-17 06:15:00,
2013-04-17 02:17:00,58.1,56.4,30.11,NE,52,0.0,1.0,94,0.00,,,0.01,Wunderground v.1.15,2013-04-17 06:17:00,
2013-04-17 02:20:00,58.1,56.4,30.11,NE,52,0.0,0.0,94,0.00,,,0.01,Wunderground v.1.15,2013-04-17 06:20:00,
2013-04-17 02:22:00,58.1,56.4,30.11,NE,52,0.0,0.0,94,0.00,,,0.01,Wunderground v.1.15,2013-04-17 06:22:00,
2013-04-17 02:23:00,58.0,56.3,30.11,ENE,69,0.0,1.0,94,0.00,,,0.01,Wunderground v.1.15,2013-04-17 06:23:00,
2013-04-17 02:24:00,58.0,56.3,30.11,North,0,0.0,2.0,94,0.00,,,0.01,Wunderground v.1.15,2013-04-17 06:24:00,
2013-04-17 02:26:00,58.0,56.3,30.11,North,350,0.0,3.0,94,0.00,,,0.01,Wunderground v.1.15,2013-04-17 06:26:00,
2013-04-17 02:29:00,57.8,56.1,30.11,North,350,0.0,3.0,94,0.00,,,0.01,Wunderground v.1.15,2013-04-17 06:29:00,
2013-04-17 02:31:00,57.8,56.1,30.11,North,350,0.0,0.0,94,0.00,,,0.02,Wunderground v.1.15,2013-04-17 06:31:00,
2013-04-17 02:32:00,57.8,56.1,30.11,North,352,0.0,0.0,94,0.00,,,0.02,Wunderground v.1.15,2013-04-17 06:32:00,
2013-04-17 02:33:00,57.8,56.1,30.11,North,352,0.0,0.0,94,0.00,,,0.02,Wunderground v.1.15,2013-04-17 06:33:00,
2013-04-17 02:34:00,57.8,56.1,30.11,North,352,0.0,0.0,94,0.00,,,0.02,Wunderground v.1.15,2013-04-17 06:34:00,
2013-04-17 02:37:00,57.8,56.1,30.11,North,353,0.0,0.0,94,0.08,,,0.02,Wunderground v.1.15,2013-04-17 06:37:00,
2013-04-17 02:38:00,57.8,56.1,30.11,ENE,61,0.0,0.0,94,0.08,,,0.03,Wunderground v.1.15,2013-04-17 06:38:00,
2013-04-17 02:40:00,57.7,56.0,30.11,ENE,66,0.0,0.0,94,0.35,,,0.04,Wunderground v.1.15,2013-04-17 06:40:00,
2013-04-17 02:42:00,57.7,56.0,30.11,East,79,0.0,0.0,94,0.29,,,0.05,Wunderground v.1.15,2013-04-17 06:42:00,
2013-04-17 02:45:00,57.5,55.8,30.09,East,79,0.0,0.0,94,0.14,,,0.05,Wunderground v.1.15,2013-04-17 06:45:00,
2013-04-17 02:46:00,57.5,55.8,30.09,East,79,0.0,0.0,94,0.12,,,0.05,Wunderground v.1.15,2013-04-17 06:46:00,
2013-04-17 02:47:00,57.5,55.8,30.09,East,79,0.0,0.0,94,0.10,,,0.05,Wunderground v.1.15,2013-04-17 06:47:00,
2013-04-17 02:48:00,57.5,55.8,30.09,East,79,0.0,0.0,94,0.08,,,0.05,Wunderground v.1.15,2013-04-17 06:48:00,
2013-04-17 02:50:00,57.5,55.8,30.09,East,79,0.0,0.0,94,0.07,,,0.06,Wunderground v.1.15,2013-04-17 06:50:00,
2013-04-17 02:52:00,57.5,55.8,30.09,NE,51,0.0,2.0,94,0.07,,,0.06,Wunderground v.1.15,2013-04-17 06:52:00,
2013-04-17 02:53:00,57.5,55.8,30.09,NE,35,1.0,2.0,94,0.07,,,0.06,Wunderground v.1.15,2013-04-17 06:53:00,
2013-04-17 02:55:00,57.5,55.8,30.09,NNE,13,1.0,2.0,94,0.07,,,0.06,Wunderground v.1.15,2013-04-17 06:55:00,
2013-04-17 02:58:00,57.5,55.8,30.09,North,8,2.0,4.0,94,0.07,,,0.06,Wunderground v.1.15,2013-04-17 06:58:00,
2013-04-17 03:01:00,57.4,55.7,30.09,NE,48,2.0,2.0,94,0.05,,,0.06,Wunderground v.1.15,2013-04-17 07:01:00,
2013-04-17 03:02:00,57.2,55.5,30.09,NNW,328,2.0,2.0,94,0.05,,,0.06,Wunderground v.1.15,2013-04-17 07:02:00,
2013-04-17 03:06:00,57.0,55.3,30.09,NW,325,2.0,6.0,94,0.04,,,0.06,Wunderground v.1.15,2013-04-17 07:06:00,
2013-04-17 03:07:00,57.0,55.3,30.09,North,357,2.0,6.0,94,0.00,,,0.06,Wunderground v.1.15,2013-04-17 07:07:00,
2013-04-17 03:08:00,56.8,55.1,30.09,NW,313,3.0,6.0,94,0.00,,,0.06,Wunderground v.1.15,2013-04-17 07:08:00,
2013-04-17 03:10:00,56.7,55.0,30.09,WNW,302,3.0,8.0,94,0.00,,,0.07,Wunderground v.1.15,2013-04-17 07:10:00,
2013-04-17 03:12:00,56.5,54.8,30.09,NW,305,4.0,8.0,94,0.00,,,0.07,Wunderground v.1.15,2013-04-17 07:12:00,
2013-04-17 03:16:00,56.2,54.5,30.11,East,99,4.0,8.0,94,2.55,,,0.16,Wunderground v.1.15,2013-04-17 07:16:00,
2013-04-17 03:17:00,56.2,54.5,30.11,East,99,4.0,8.0,94,0.78,,,0.18,Wunderground v.1.15,2013-04-17 07:17:00,
2013-04-17 03:19:00,56.1,54.4,30.11,East,89,3.0,8.0,94,0.37,,,0.19,Wunderground v.1.15,2013-04-17 07:19:00,
2013-04-17 03:20:00,56.1,54.4,30.11,North,354,3.0,3.0,94,0.37,,,0.19,Wunderground v.1.15,2013-04-17 07:20:00,
2013-04-17 03:22:00,56.1,54.4,30.11,East,83,2.0,3.0,94,0.16,,,0.19,Wunderground v.1.15,2013-04-17 07:22:00,
2013-04-17 03:24:00,56.1,54.4,30.11,ESE,103,2.0,5.0,94,0.11,,,0.19,Wunderground v.1.15,2013-04-17 07:24:00,
2013-04-17 03:25:00,55.9,54.2,30.11,ESE,114,2.0,6.0,94,0.11,,,0.20,Wunderground v.1.15,2013-04-17 07:25:00,
2013-04-17 03:27:00,55.9,54.2,30.11,ESE,114,3.0,9.0,94,0.22,,,0.20,Wunderground v.1.15,2013-04-17 07:27:00,
2013-04-17 03:28:00,55.9,54.2,30.11,ESE,107,4.0,9.0,94,0.22,,,0.21,Wunderground v.1.15,2013-04-17 07:28:00,
2013-04-17 03:30:00,55.9,54.2,30.09,ENE,78,5.0,5.0,94,0.19,,,0.21,Wunderground v.1.15,2013-04-17 07:30:00,
2013-04-17 03:31:00,55.9,54.2,30.09,East,82,5.0,7.0,94,0.15,,,0.21,Wunderground v.1.15,2013-04-17 07:31:00,
2013-04-17 03:33:00,55.9,54.2,30.09,ESE,113,6.0,7.0,94,0.15,,,0.22,Wunderground v.1.15,2013-04-17 07:33:00,
2013-04-17 03:35:00,55.9,54.2,30.09,ESE,112,5.0,7.0,94,0.15,,,0.22,Wunderground v.1.15,2013-04-17 07:35:00,
2013-04-17 03:36:00,55.9,54.2,30.09,ESE,102,5.0,7.0,94,0.12,,,0.22,Wunderground v.1.15,2013-04-17 07:36:00,
2013-04-17 03:37:00,55.9,54.2,30.09,East,97,5.0,7.0,94,0.12,,,0.23,Wunderground v.1.15,2013-04-17 07:37:00,
2013-04-17 03:41:00,56.1,54.4,30.09,North,359,2.0,3.0,94,0.38,,,0.24,Wunderground v.1.15,2013-04-17 07:41:00,
2013-04-17 03:42:00,56.1,54.4,30.09,North,0,2.0,3.0,94,0.38,,,0.25,Wunderground v.1.15,2013-04-17 07:42:00,
2013-04-17 03:43:00,56.1,54.4,30.09,North,359,2.0,3.0,94,0.30,,,0.25,Wunderground v.1.15,2013-04-17 07:43:00,
2013-04-17 03:45:00,56.1,54.4,30.11,NNE,16,1.0,3.0,94,0.14,,,0.25,Wunderground v.1.15,2013-04-17 07:45:00,
2013-04-17 03:47:00,56.1,54.4,30.11,North,4,1.0,5.0,94,0.10,,,0.25,Wunderground v.1.15,2013-04-17 07:47:00,
2013-04-17 03:48:00,56.1,54.4,30.11,NNE,20,1.0,5.0,94,0.08,,,0.25,Wunderground v.1.15,2013-04-17 07:48:00,
2013-04-17 03:49:00,56.1,54.4,30.11,NNE,21,1.0,5.0,94,0.08,,,0.26,Wunderground v.1.15,2013-04-17 07:49:00,
2013-04-17 03:51:00,56.1,54.4,30.11,NNE,30,1.0,1.0,94,0.31,,,0.27,Wunderground v.1.15,2013-04-17 07:51:00,
2013-04-17 03:54:00,56.1,54.4,30.11,ENE,78,1.0,1.0,94,0.34,,,0.31,Wunderground v.1.15,2013-04-17 07:54:00,
2013-04-17 03:55:00,56.1,54.4,30.11,East,93,1.0,1.0,94,0.22,,,0.31,Wunderground v.1.15,2013-04-17 07:55:00,
2013-04-17 03:56:00,56.1,54.4,30.11,East,93,1.0,1.0,94,0.18,,,0.32,Wunderground v.1.15,2013-04-17 07:56:00,
2013-04-17 03:57:00,55.9,54.2,30.11,East,93,1.0,1.0,94,0.18,,,0.32,Wunderground v.1.15,2013-04-17 07:57:00,
2013-04-17 04:00:00,55.9,54.2,30.09,East,85,1.0,1.0,94,0.12,,,0.32,Wunderground v.1.15,2013-04-17 08:00:00,
2013-04-17 04:01:00,55.9,54.2,30.09,ENE,64,1.0,1.0,94,0.11,,,0.32,Wunderground v.1.15,2013-04-17 08:01:00,
2013-04-17 04:03:00,55.9,54.2,30.09,North,350,0.0,2.0,94,0.08,,,0.32,Wunderground v.1.15,2013-04-17 08:03:00,
2013-04-17 04:06:00,55.9,54.2,30.09,North,349,2.0,6.0,94,0.06,,,0.32,Wunderground v.1.15,2013-04-17 08:06:00,
2013-04-17 04:08:00,55.9,54.2,30.09,NE,37,3.0,6.0,94,0.05,,,0.32,Wunderground v.1.15,2013-04-17 08:08:00,
2013-04-17 04:09:00,55.8,54.1,30.09,North,353,3.0,6.0,94,0.04,,,0.32,Wunderground v.1.15,2013-04-17 08:09:00,
2013-04-17 04:11:00,55.8,54.1,30.09,North,354,3.0,3.0,94,0.04,,,0.33,Wunderground v.1.15,2013-04-17 08:11:00,
2013-04-17 04:12:00,55.8,54.1,30.09,North,354,3.0,3.0,94,0.04,,,0.33,Wunderground v.1.15,2013-04-17 08:12:00,
2013-04-17 04:16:00,55.6,53.9,30.12,ENE,69,2.0,3.0,94,0.14,,,0.34,Wunderground v.1.15,2013-04-17 08:16:00,
2013-04-17 04:17:00,55.6,53.9,30.12,ENE,69,2.0,3.0,94,0.14,,,0.34,Wunderground v.1.15,2013-04-17 08:17:00,
2013-04-17 04:19:00,55.6,53.9,30.12,ENE,69,1.0,3.0,94,0.13,,,0.34,Wunderground v.1.15,2013-04-17 08:19:00,
2013-04-17 04:20:00,55.6,53.9,30.12,ENE,69,1.0,1.0,94,0.10,,,0.34,Wunderground v.1.15,2013-04-17 08:20:00,
2013-04-17 04:23:00,55.6,53.9,30.12,ENE,72,1.0,3.0,94,0.07,,,0.34,Wunderground v.1.15,2013-04-17 08:23:00,
2013-04-17 04:24:00,55.6,53.9,30.12,East,89,1.0,3.0,94,0.06,,,0.34,Wunderground v.1.15,2013-04-17 08:24:00,
2013-04-17 04:29:00,55.8,54.1,30.12,West,274,1.0,3.0,94,0.04,,,0.34,Wunderground v.1.15,2013-04-17 08:29:00,
2013-04-17 04:31:00,55.8,54.1,30.13,NW,311,1.0,1.0,94,0.04,,,0.34,Wunderground v.1.15,2013-04-17 08:31:00,
2013-04-17 04:32:00,55.8,54.1,30.13,NW,311,1.0,3.0,94,0.00,,,0.34,Wunderground v.1.15,2013-04-17 08:32:00,
2013-04-17 04:34:00,55.8,54.1,30.13,NW,311,1.0,3.0,94,0.00,,,0.34,Wunderground v.1.15,2013-04-17 08:34:00,
2013-04-17 04:36:00,55.8,54.1,30.13,NW,311,1.0,3.0,94,0.00,,,0.34,Wunderground v.1.15,2013-04-17 08:36:00,
2013-04-17 04:37:00,55.8,54.1,30.13,North,354,0.0,3.0,94,0.00,,,0.34,Wunderground v.1.15,2013-04-17 08:37:00,
2013-04-17 04:40:00,55.8,54.1,30.13,North,356,1.0,1.0,94,0.00,,,0.34,Wunderground v.1.15,2013-04-17 08:40:00,
2013-04-17 04:43:00,55.8,54.1,30.13,North,349,1.0,1.0,94,0.00,,,0.34,Wunderground v.1.15,2013-04-17 08:43:00,
2013-04-17 04:44:00,55.8,54.1,30.13,North,353,1.0,1.0,94,0.00,,,0.34,Wunderground v.1.15,2013-04-17 08:44:00,
2013-04-17 04:47:00,55.6,53.9,30.12,North,353,1.0,1.0,94,0.00,,,0.34,Wunderground v.1.15,2013-04-17 08:47:00,
2013-04-17 04:48:00,55.6,53.9,30.12,NNE,24,1.0,1.0,94,0.00,,,0.34,Wunderground v.1.15,2013-04-17 08:48:00,
2013-04-17 04:51:00,55.6,53.9,30.12,NNE,24,0.0,0.0,94,0.00,,,0.34,Wunderground v.1.15,2013-04-17 08:51:00,
2013-04-17 04:52:00,55.6,53.9,30.12,NNE,24,0.0,0.0,94,0.00,,,0.34,Wunderground v.1.15,2013-04-17 08:52:00,
2013-04-17 04:53:00,55.6,53.9,30.12,NNE,24,0.0,0.0,94,0.00,,,0.34,Wunderground v.1.15,2013-04-17 08:53:00,
2013-04-17 04:54:00,55.6,53.9,30.12,NNE,24,0.0,0.0,94,0.00,,,0.34,Wunderground v.1.15,2013-04-17 08:54:00,
2013-04-17 04:59:00,55.5,53.8,30.12,NW,311,1.0,6.0,94,0.00,,,0.34,Wunderground v.1.15,2013-04-17 08:59:00,
2013-04-17 05:00:00,55.5,53.8,30.13,NW,320,1.0,2.0,94,0.00,,,0.34,Wunderground v.1.15,2013-04-17 09:00:00,
2013-04-17 05:02:00,55.5,53.8,30.13,NNW,335,2.0,2.0,94,0.00,,,0.34,Wunderground v.1.15,2013-04-17 09:02:00,
2013-04-17 05:05:00,55.5,53.8,30.13,ENE,62,3.0,5.0,94,0.00,,,0.34,Wunderground v.1.15,2013-04-17 09:05:00,
2013-04-17 05:06:00,55.5,53.8,30.13,East,88,3.0,5.0,94,0.00,,,0.34,Wunderground v.1.15,2013-04-17 09:06:00,
2013-04-17 05:08:00,55.5,53.8,30.13,East,83,3.0,5.0,94,0.00,,,0.34,Wunderground v.1.15,2013-04-17 09:08:00,
2013-04-17 05:09:00,55.5,53.8,30.13,NNW,339,2.0,5.0,94,0.00,,,0.34,Wunderground v.1.15,2013-04-17 09:09:00,
2013-04-17 05:11:00,55.5,53.8,30.13,NW,311,2.0,2.0,94,0.00,,,0.34,Wunderground v.1.15,2013-04-17 09:11:00,
2013-04-17 05:13:00,55.5,53.8,30.13,NW,316,2.0,2.0,94,0.00,,,0.34,Wunderground v.1.15,2013-04-17 09:13:00,
2013-04-17 05:14:00,55.5,53.8,30.13,NW,316,1.0,2.0,94,0.00,,,0.34,Wunderground v.1.15,2013-04-17 09:14:00,
2013-04-17 05:16:00,55.5,53.8,30.12,NE,56,0.0,2.0,94,0.00,,,0.34,Wunderground v.1.15,2013-04-17 09:16:00,
2013-04-17 05:18:00,55.5,53.8,30.12,NE,51,0.0,2.0,94,0.00,,,0.34,Wunderground v.1.15,2013-04-17 09:18:00,
2013-04-17 05:20:00,55.5,53.8,30.12,North,353,0.0,0.0,94,0.00,,,0.34,Wunderground v.1.15,2013-04-17 09:20:00,
2013-04-17 05:23:00,55.5,53.8,30.12,NNW,342,0.0,0.0,94,0.00,,,0.34,Wunderground v.1.15,2013-04-17 09:23:00,
2013-04-17 05:25:00,55.6,53.9,30.12,East,93,1.0,4.0,94,0.00,,,0.34,Wunderground v.1.15,2013-04-17 09:25:00,
2013-04-17 05:28:00,55.6,53.9,30.12,West,272,1.0,4.0,94,0.00,,,0.34,Wunderground v.1.15,2013-04-17 09:28:00,
2013-04-17 05:29:00,55.6,53.9,30.12,West,272,1.0,4.0,94,0.00,,,0.34,Wunderground v.1.15,2013-04-17 09:29:00,
2013-04-17 05:30:00,55.6,53.9,30.13,WNW,296,1.0,1.0,94,0.00,,,0.34,Wunderground v.1.15,2013-04-17 09:30:00,
2013-04-17 05:31:00,55.6,53.9,30.13,WNW,296,1.0,1.0,94,0.00,,,0.34,Wunderground v.1.15,2013-04-17 09:31:00,
2013-04-17 05:34:00,55.6,53.9,30.13,East,93,2.0,3.0,94,0.00,,,0.34,Wunderground v.1.15,2013-04-17 09:34:00,
2013-04-17 05:35:00,55.8,54.1,30.13,East,93,1.0,3.0,94,0.00,,,0.34,Wunderground v.1.15,2013-04-17 09:35:00,
2013-04-17 05:37:00,55.8,54.1,30.13,WSW,258,1.0,3.0,94,0.00,,,0.34,Wunderground v.1.15,2013-04-17 09:37:00,
2013-04-17 05:39:00,55.8,54.1,30.13,West,260,1.0,3.0,94,0.00,,,0.34,Wunderground v.1.15,2013-04-17 09:39:00,
2013-04-17 05:40:00,55.8,54.1,30.13,West,260,1.0,1.0,94,0.00,,,0.34,Wunderground v.1.15,2013-04-17 09:40:00,
2013-04-17 05:42:00,55.8,54.1,30.13,West,260,1.0,1.0,94,0.00,,,0.34,Wunderground v.1.15,2013-04-17 09:42:00,
2013-04-17 05:45:00,55.8,54.1,30.12,NE,55,0.0,1.0,94,0.00,,,0.34,Wunderground v.1.15,2013-04-17 09:45:00,
2013-04-17 05:47:00,55.9,54.2,30.12,ENE,68,0.0,2.0,94,0.00,,,0.34,Wunderground v.1.15,2013-04-17 09:47:00,
2013-04-17 05:50:00,55.9,54.2,30.12,ESE,112,1.0,3.0,94,0.00,,,0.34,Wunderground v.1.15,2013-04-17 09:50:00,
2013-04-17 05:51:00,55.9,54.2,30.12,ESE,114,1.0,3.0,94,0.00,,,0.34,Wunderground v.1.15,2013-04-17 09:51:00,
2013-04-17 05:52:00,55.9,54.2,30.12,ESE,114,1.0,3.0,94,0.00,,,0.34,Wunderground v.1.15,2013-04-17 09:52:00,
2013-04-17 05:55:00,56.1,54.4,30.12,ESE,114,2.0,3.0,94,0.00,,,0.34,Wunderground v.1.15,2013-04-17 09:55:00,
2013-04-17 05:56:00,56.1,54.4,30.12,ESE,113,2.0,3.0,94,0.00,,,0.34,Wunderground v.1.15,2013-04-17 09:56:00,
2013-04-17 05:57:00,56.1,54.4,30.12,ESE,113,2.0,3.0,94,0.00,,,0.34,Wunderground v.1.15,2013-04-17 09:57:00,
2013-04-17 05:58:00,56.1,54.4,30.12,East,95,2.0,4.0,94,0.00,,,0.34,Wunderground v.1.15,2013-04-17 09:58:00,
2013-04-17 06:01:00,56.1,54.4,30.11,East,89,3.0,6.0,94,0.00,,,0.34,Wunderground v.1.15,2013-04-17 10:01:00,
2013-04-17 06:02:00,56.1,54.4,30.11,East,90,3.0,6.0,94,0.00,,,0.34,Wunderground v.1.15,2013-04-17 10:02:00,
2013-04-17 06:03:00,56.2,54.5,30.11,East,90,3.0,6.0,94,0.00,,,0.34,Wunderground v.1.15,2013-04-17 10:03:00,
2013-04-17 06:04:00,56.2,54.5,30.11,East,90,3.0,6.0,94,0.00,,,0.34,Wunderground v.1.15,2013-04-17 10:04:00,
2013-04-17 06:07:00,56.2,54.5,30.11,East,90,3.0,6.0,94,0.00,,,0.34,Wunderground v.1.15,2013-04-17 10:07:00,
2013-04-17 06:08:00,56.2,54.5,30.11,East,90,2.0,6.0,94,0.00,,,0.34,Wunderground v.1.15,2013-04-17 10:08:00,
2013-04-17 06:10:00,56.2,54.5,30.11,East,93,2.0,2.0,94,0.00,,,0.34,Wunderground v.1.15,2013-04-17 10:10:00,
2013-04-17 06:13:00,56.2,54.5,30.11,East,80,1.0,3.0,94,0.00,,,0.34,Wunderground v.1.15,2013-04-17 10:13:00,
2013-04-17 06:14:00,56.2,54.8,30.11,East,80,1.0,3.0,95,0.00,,,0.34,Wunderground v.1.15,2013-04-17 10:14:00,
2013-04-17 06:15:00,56.2,54.5,30.10,ESE,109,1.0,4.0,94,0.00,,,0.34,Wunderground v.1.15,2013-04-17 10:15:00,
2013-04-17 06:16:00,56.2,54.5,30.10,ESE,109,1.0,4.0,94,0.00,,,0.34,Wunderground v.1.15,2013-04-17 10:16:00,
2013-04-17 06:18:00,56.4,54.7,30.10,ESE,109,1.0,4.0,94,0.00,,,0.34,Wunderground v.1.15,2013-04-17 10:18:00,
2013-04-17 06:19:00,56.2,54.5,30.10,ESE,109,1.0,4.0,94,0.00,,,0.34,Wunderground v.1.15,2013-04-17 10:19:00,
2013-04-17 06:22:00,56.4,54.7,30.10,ESE,109,1.0,1.0,94,0.00,,,0.34,Wunderground v.1.15,2013-04-17 10:22:00,
2013-04-17 06:25:00,56.4,55.0,30.10,ESE,109,0.0,1.0,95,0.00,,,0.34,Wunderground v.1.15,2013-04-17 10:25:00,
2013-04-17 06:27:00,56.4,54.7,30.10,ESE,109,0.0,1.0,94,0.00,,,0.34,Wunderground v.1.15,2013-04-17 10:27:00,
2013-04-17 06:28:00,56.4,54.7,30.10,ESE,109,0.0,1.0,94,0.00,,,0.34,Wunderground v.1.15,2013-04-17 10:28:00,
2013-04-17 06:31:00,56.4,54.7,30.10,ESE,109,0.0,0.0,94,0.00,,,0.34,Wunderground v.1.15,2013-04-17 10:31:00,
2013-04-17 06:32:00,56.4,54.7,30.10,ESE,109,0.0,0.0,94,0.00,,,0.34,Wunderground v.1.15,2013-04-17 10:32:00,
2013-04-17 06:34:00,56.4,54.7,30.10,ESE,110,0.0,0.0,94,0.00,,,0.34,Wunderground v.1.15,2013-04-17 10:34:00,
2013-04-17 06:37:00,56.5,55.1,30.10,ESE,121,1.0,3.0,95,0.00,,,0.34,Wunderground v.1.15,2013-04-17 10:37:00,
2013-04-17 06:38:00,56.5,55.1,30.10,ESE,121,1.0,4.0,95,0.00,,,0.34,Wunderground v.1.15,2013-04-17 10:38:00,
2013-04-17 06:41:00,56.7,55.3,30.10,ESE,123,2.0,4.0,95,0.00,,,0.34,Wunderground v.1.15,2013-04-17 10:41:00,
2013-04-17 06:42:00,56.7,55.3,30.10,ESE,123,3.0,4.0,95,0.00,,,0.34,Wunderground v.1.15,2013-04-17 10:42:00,
2013-04-17 06:45:00,56.8,55.1,30.10,SE,124,4.0,5.0,94,0.00,,,0.34,Wunderground v.1.15,2013-04-17 10:45:00,
2013-04-17 06:47:00,56.8,55.1,30.10,SE,124,3.0,5.0,94,0.00,,,0.34,Wunderground v.1.15,2013-04-17 10:47:00,
2013-04-17 06:48:00,56.8,55.4,30.10,SE,124,3.0,5.0,95,0.00,,,0.34,Wunderground v.1.15,2013-04-17 10:48:00,
2013-04-17 06:49:00,56.8,55.4,30.10,SE,124,3.0,5.0,95,0.00,,,0.34,Wunderground v.1.15,2013-04-17 10:49:00,
2013-04-17 06:52:00,56.8,55.4,30.10,NE,49,2.0,2.0,95,0.00,,,0.34,Wunderground v.1.15,2013-04-17 10:52:00,
2013-04-17 06:53:00,56.8,55.4,30.10,NE,49,1.0,3.0,95,0.00,,,0.34,Wunderground v.1.15,2013-04-17 10:53:00,
2013-04-17 06:54:00,56.8,55.4,30.10,NE,49,1.0,3.0,95,0.00,,,0.34,Wunderground v.1.15,2013-04-17 10:54:00,
2013-04-17 06:56:00,56.8,55.4,30.10,NE,45,1.0,3.0,95,0.00,,,0.34,Wunderground v.1.15,2013-04-17 10:56:00,
2013-04-17 06:58:00,56.8,55.4,30.10,ENE,65,1.0,3.0,95,0.00,,,0.34,Wunderground v.1.15,2013-04-17 10:58:00,
2013-04-17 06:59:00,56.8,55.4,30.10,ENE,65,1.0,3.0,95,0.00,,,0.34,Wunderground v.1.15,2013-04-17 10:59:00,
2013-04-17 07:03:00,56.8,55.1,30.12,NNE,14,1.0,3.0,94,0.00,,,0.34,Wunderground v.1.15,2013-04-17 11:03:00,
2013-04-17 07:04:00,56.8,55.1,30.12,NNE,13,1.0,3.0,94,0.00,,,0.34,Wunderground v.1.15,2013-04-17 11:04:00,
2013-04-17 07:05:00,56.8,55.4,30.12,NNE,13,1.0,3.0,95,0.00,,,0.34,Wunderground v.1.15,2013-04-17 11:05:00,
2013-04-17 07:08:00,56.7,55.3,30.12,NNE,13,1.0,3.0,95,0.00,,,0.34,Wunderground v.1.15,2013-04-17 11:08:00,
2013-04-17 07:09:00,56.8,55.4,30.12,NNE,13,1.0,3.0,95,0.00,,,0.34,Wunderground v.1.15,2013-04-17 11:09:00,
2013-04-17 07:10:00,56.8,55.4,30.12,NNE,13,1.0,1.0,95,0.00,,,0.34,Wunderground v.1.15,2013-04-17 11:10:00,
2013-04-17 07:14:00,56.8,55.4,30.12,NNE,13,1.0,1.0,95,0.00,,,0.34,Wunderground v.1.15,2013-04-17 11:14:00,
2013-04-17 07:16:00,56.8,55.4,30.14,NNE,13,0.0,1.0,95,0.00,,,0.34,Wunderground v.1.15,2013-04-17 11:16:00,
2013-04-17 07:18:00,56.8,55.4,30.14,NNE,31,0.0,1.0,95,0.00,,,0.34,Wunderground v.1.15,2013-04-17 11:18:00,
2013-04-17 07:20:00,56.8,55.4,30.14,NNE,31,0.0,0.0,95,0.00,,,0.34,Wunderground v.1.15,2013-04-17 11:20:00,
2013-04-17 07:21:00,56.8,55.4,30.14,NNE,31,0.0,0.0,95,0.00,,,0.34,Wunderground v.1.15,2013-04-17 11:21:00,
2013-04-17 07:22:00,56.8,55.4,30.14,NNE,31,0.0,0.0,95,0.00,,,0.34,Wunderground v.1.15,2013-04-17 11:22:00,
2013-04-17 07:23:00,56.8,55.4,30.14,NNE,31,0.0,0.0,95,0.00,,,0.34,Wunderground v.1.15,2013-04-17 11:23:00,
2013-04-17 07:26:00,56.8,55.4,30.14,NNE,31,0.0,0.0,95,0.00,,,0.34,Wunderground v.1.15,2013-04-17 11:26:00,
2013-04-17 07:28:00,56.8,55.4,30.14,ENE,78,0.0,2.0,95,0.00,,,0.34,Wunderground v.1.15,2013-04-17 11:28:00,
2013-04-17 07:30:00,57.0,55.6,30.13,East,82,1.0,1.0,95,0.00,,,0.34,Wunderground v.1.15,2013-04-17 11:30:00,
2013-04-17 07:31:00,57.0,55.6,30.13,East,83,1.0,2.0,95,0.00,,,0.34,Wunderground v.1.15,2013-04-17 11:31:00,
2013-04-17 07:35:00,57.0,55.6,30.13,East,85,1.0,2.0,95,0.00,,,0.34,Wunderground v.1.15,2013-04-17 11:35:00,
2013-04-17 07:37:00,57.0,55.6,30.13,East,85,1.0,2.0,95,0.00,,,0.34,Wunderground v.1.15,2013-04-17 11:37:00,
2013-04-17 07:38:00,57.0,55.6,30.13,East,90,1.0,2.0,95,0.00,,,0.34,Wunderground v.1.15,2013-04-17 11:38:00,
2013-04-17 07:43:00,57.1,55.7,30.13,ESE,109,1.0,6.0,95,0.00,,,0.34,Wunderground v.1.15,2013-04-17 11:43:00,
2013-04-17 07:44:00,57.1,55.7,30.13,ESE,104,1.0,6.0,95,0.00,,,0.34,Wunderground v.1.15,2013-04-17 11:44:00,
2013-04-17 07:46:00,57.1,55.7,30.13,East,90,2.0,6.0,95,0.00,,,0.34,Wunderground v.1.15,2013-04-17 11:46:00,
2013-04-17 07:48:00,57.1,55.7,30.13,ESE,103,3.0,6.0,95,0.00,,,0.34,Wunderground v.1.15,2013-04-17 11:48:00,
2013-04-17 07:52:00,57.2,55.8,30.13,ESE,109,4.0,4.0,95,0.00,,,0.34,Wunderground v.1.15,2013-04-17 11:52:00,
2013-04-17 07:54:00,57.2,55.8,30.13,ENE,69,4.0,4.0,95,0.00,,,0.34,Wunderground v.1.15,2013-04-17 11:54:00,
2013-04-17 07:55:00,57.2,55.8,30.13,ESE,109,4.0,4.0,95,0.00,,,0.34,Wunderground v.1.15,2013-04-17 11:55:00,
2013-04-17 07:56:00,57.2,55.8,30.13,East,85,4.0,5.0,95,0.00,,,0.34,Wunderground v.1.15,2013-04-17 11:56:00,
2013-04-17 08:00:00,57.2,55.5,30.13,ESE,110,4.0,5.0,94,0.00,,,0.34,Wunderground v.1.15,2013-04-17 12:00:00,
2013-04-17 08:01:00,57.2,55.8,30.13,ESE,106,4.0,5.0,95,0.00,,,0.34,Wunderground v.1.15,2013-04-17 12:01:00,
2013-04-17 08:02:00,57.2,55.5,30.13,ESE,106,4.0,5.0,94,0.00,,,0.34,Wunderground v.1.15,2013-04-17 12:02:00,
2013-04-17 08:03:00,57.2,55.8,30.13,ESE,114,4.0,5.0,95,0.00,,,0.34,Wunderground v.1.15,2013-04-17 12:03:00,
2013-04-17 08:04:00,57.2,55.5,30.13,ESE,114,4.0,5.0,94,0.00,,,0.34,Wunderground v.1.15,2013-04-17 12:04:00,
2013-04-17 08:06:00,57.2,55.8,30.13,ESE,116,4.0,5.0,95,0.00,,,0.34,Wunderground v.1.15,2013-04-17 12:06:00,
2013-04-17 08:09:00,57.2,55.5,30.13,ESE,117,4.0,5.0,94,0.00,,,0.34,Wunderground v.1.15,2013-04-17 12:09:00,
2013-04-17 08:10:00,57.4,55.7,30.13,ESE,112,4.0,4.0,94,0.00,,,0.34,Wunderground v.1.15,2013-04-17 12:10:00,
2013-04-17 08:11:00,57.4,55.7,30.13,ESE,113,3.0,4.0,94,0.00,,,0.34,Wunderground v.1.15,2013-04-17 12:11:00,
2013-04-17 08:15:00,57.4,55.7,30.12,ESE,116,4.0,7.0,94,0.00,,,0.34,Wunderground v.1.15,2013-04-17 12:15:00,
2013-04-17 08:16:00,57.4,55.7,30.12,ESE,117,4.0,7.0,94,0.00,,,0.34,Wunderground v.1.15,2013-04-17 12:16:00,
2013-04-17 08:17:00,57.4,55.7,30.12,ESE,104,5.0,7.0,94,0.00,,,0.34,Wunderground v.1.15,2013-04-17 12:17:00,
2013-04-17 08:19:00,57.4,55.7,30.12,ESE,113,5.0,7.0,94,0.00,,,0.34,Wunderground v.1.15,2013-04-17 12:19:00,
2013-04-17 08:21:00,57.5,55.8,30.12,ESE,117,5.0,5.0,94,0.00,,,0.34,Wunderground v.1.15,2013-04-17 12:21:00,
2013-04-17 08:24:00,57.5,55.8,30.12,ESE,117,5.0,5.0,94,0.00,,,0.34,Wunderground v.1.15,2013-04-17 12:24:00,
2013-04-17 08:25:00,57.5,55.8,30.12,ESE,116,5.0,6.0,94,0.00,,,0.34,Wunderground v.1.15,2013-04-17 12:25:00,
2013-04-17 08:27:00,57.5,55.8,30.12,ESE,117,4.0,6.0,94,0.00,,,0.34,Wunderground v.1.15,2013-04-17 12:27:00,
2013-04-17 08:31:00,57.7,56.0,30.12,ESE,113,4.0,6.0,94,0.00,,,0.34,Wunderground v.1.15,2013-04-17 12:31:00,
2013-04-17 08:32:00,57.7,56.0,30.12,ESE,116,4.0,8.0,94,0.00,,,0.34,Wunderground v.1.15,2013-04-17 12:32:00,
2013-04-17 08:34:00,57.7,56.0,30.12,ESE,110,5.0,8.0,94,0.00,,,0.34,Wunderground v.1.15,2013-04-17 12:34:00,
2013-04-17 08:39:00,57.8,56.1,30.12,ESE,117,5.0,8.0,94,0.00,,,0.34,Wunderground v.1.15,2013-04-17 12:39:00,
2013-04-17 08:41:00,57.8,56.1,30.12,ESE,107,6.0,6.0,94,0.00,,,0.34,Wunderground v.1.15,2013-04-17 12:41:00,
2013-04-17 08:42:00,58.0,56.3,30.12,ESE,110,5.0,6.0,94,0.00,,,0.34,Wunderground v.1.15,2013-04-17 12:42:00,
2013-04-17 08:43:00,58.0,56.3,30.12,ESE,107,5.0,6.0,94,0.00,,,0.34,Wunderground v.1.15,2013-04-17 12:43:00,
2013-04-17 08:44:00,58.0,56.3,30.12,ESE,117,5.0,6.0,94,0.00,,,0.34,Wunderground v.1.15,2013-04-17 12:44:00,
2013-04-17 08:45:00,58.0,56.3,30.12,SE,128,5.0,6.0,94,0.00,,,0.34,Wunderground v.1.15,2013-04-17 12:45:00,
2013-04-17 08:46:00,58.1,56.4,30.12,ESE,117,5.0,6.0,94,0.00,,,0.34,Wunderground v.1.15,2013-04-17 12:46:00,
2013-04-17 08:49:00,58.1,56.4,30.12,ESE,109,4.0,6.0,94,0.00,,,0.34,Wunderground v.1.15,2013-04-17 12:49:00,
2013-04-17 08:51:00,58.1,56.4,30.12,East,85,4.0,6.0,94,0.00,,,0.34,Wunderground v.1.15,2013-04-17 12:51:00,
2013-04-17 08:53:00,58.1,56.4,30.12,ESE,113,5.0,6.0,94,0.00,,,0.34,Wunderground v.1.15,2013-04-17 12:53:00,
2013-04-17 08:56:00,58.1,56.4,30.12,East,97,5.0,6.0,94,0.00,,,0.34,Wunderground v.1.15,2013-04-17 12:56:00,
2013-04-17 08:58:00,58.1,56.4,30.12,ESE,109,5.0,7.0,94,0.00,,,0.34,Wunderground v.1.15,2013-04-17 12:58:00,
2013-04-17 09:00:00,58.3,56.6,30.12,ESE,106,6.0,6.0,94,0.00,,,0.34,Wunderground v.1.15,2013-04-17 13:00:00,
2013-04-17 09:03:00,58.3,56.6,30.12,ESE,103,5.0,6.0,94,0.00,,,0.34,Wunderground v.1.15,2013-04-17 13:03:00,
2013-04-17 09:05:00,58.3,56.6,30.12,ESE,116,5.0,6.0,94,0.00,,,0.34,Wunderground v.1.15,2013-04-17 13:05:00,
2013-04-17 09:06:00,58.5,56.8,30.12,ESE,114,5.0,6.0,94,0.00,,,0.34,Wunderground v.1.15,2013-04-17 13:06:00,
2013-04-17 09:08:00,58.5,56.8,30.12,East,90,4.0,6.0,94,0.00,,,0.34,Wunderground v.1.15,2013-04-17 13:08:00,
2013-04-17 09:10:00,58.5,56.8,30.12,ESE,104,4.0,4.0,94,0.00,,,0.34,Wunderground v.1.15,2013-04-17 13:10:00,
2013-04-17 09:11:00,58.5,56.8,30.12,East,96,4.0,4.0,94,0.00,,,0.34,Wunderground v.1.15,2013-04-17 13:11:00,
2013-04-17 09:15:00,58.5,56.8,30.12,ESE,113,3.0,4.0,94,0.00,,,0.34,Wunderground v.1.15,2013-04-17 13:15:00,
2013-04-17 09:18:00,58.5,56.8,30.12,ESE,112,3.0,4.0,94,0.00,,,0.34,Wunderground v.1.15,2013-04-17 13:18:00,
2013-04-17 09:19:00,58.5,56.8,30.12,East,93,3.0,4.0,94,0.00,,,0.34,Wunderground v.1.15,2013-04-17 13:19:00,
2013-04-17 09:21:00,58.6,56.9,30.12,East,93,2.0,2.0,94,0.00,,,0.34,Wunderground v.1.15,2013-04-17 13:21:00,
2013-04-17 09:22:00,58.6,56.9,30.12,East,88,2.0,3.0,94,0.00,,,0.34,Wunderground v.1.15,2013-04-17 13:22:00,
2013-04-17 09:24:00,58.5,56.8,30.12,East,92,2.0,3.0,94,0.00,,,0.34,Wunderground v.1.15,2013-04-17 13:24:00,
2013-04-17 09:26:00,58.5,56.5,30.12,ENE,69,1.0,3.0,93,0.00,,,0.34,Wunderground v.1.15,2013-04-17 13:26:00,
2013-04-17 09:27:00,58.5,56.5,30.12,ENE,72,1.0,3.0,93,0.00,,,0.34,Wunderground v.1.15,2013-04-17 13:27:00,
2013-04-17 09:32:00,58.5,56.5,30.12,East,89,2.0,3.0,93,0.00,,,0.34,Wunderground v.1.15,2013-04-17 13:32:00,
2013-04-17 09:33:00,58.5,56.5,30.12,East,89,2.0,3.0,93,0.00,,,0.34,Wunderground v.1.15,2013-04-17 13:33:00,
2013-04-17 09:34:00,58.6,56.9,30.12,East,89,2.0,3.0,94,0.00,,,0.34,Wunderground v.1.15,2013-04-17 13:34:00,
2013-04-17 09:35:00,58.6,56.9,30.12,East,89,2.0,3.0,94,0.00,,,0.34,Wunderground v.1.15,2013-04-17 13:35:00,
2013-04-17 09:38:00,58.6,56.6,30.12,East,89,1.0,3.0,93,0.00,,,0.34,Wunderground v.1.15,2013-04-17 13:38:00,
2013-04-17 09:40:00,58.8,57.1,30.12,East,89,1.0,1.0,94,0.00,,,0.34,Wunderground v.1.15,2013-04-17 13:40:00,
2013-04-17 09:43:00,58.9,56.9,30.12,East,85,0.0,1.0,93,0.00,,,0.34,Wunderground v.1.15,2013-04-17 13:43:00,
2013-04-17 09:47:00,58.9,56.9,30.12,East,88,0.0,1.0,93,0.00,,,0.34,Wunderground v.1.15,2013-04-17 13:47:00,
2013-04-17 09:48:00,58.9,56.9,30.12,East,88,0.0,1.0,93,0.00,,,0.34,Wunderground v.1.15,2013-04-17 13:48:00,
2013-04-17 09:49:00,58.9,56.9,30.12,East,88,0.0,3.0,93,0.00,,,0.34,Wunderground v.1.15,2013-04-17 13:49:00,
2013-04-17 09:53:00,59.1,57.1,30.12,East,88,1.0,3.0,93,0.00,,,0.34,Wunderground v.1.15,2013-04-17 13:53:00,
2013-04-17 09:54:00,59.1,57.1,30.12,East,89,1.0,3.0,93,0.00,,,0.34,Wunderground v.1.15,2013-04-17 13:54:00,
2013-04-17 09:56:00,59.1,57.1,30.12,East,90,1.0,3.0,93,0.00,,,0.34,Wunderground v.1.15,2013-04-17 13:56:00,
2013-04-17 09:57:00,59.1,57.1,30.12,East,90,1.0,3.0,93,0.00,,,0.34,Wunderground v.1.15,2013-04-17 13:57:00,
2013-04-17 09:59:00,59.1,57.1,30.12,East,90,1.0,3.0,93,0.00,,,0.34,Wunderground v.1.15,2013-04-17 13:59:00,
2013-04-17 10:00:00,59.1,57.1,30.13,East,90,1.0,1.0,93,0.00,,,0.34,Wunderground v.1.15,2013-04-17 14:00:00,
2013-04-17 10:02:00,59.1,57.1,30.13,East,90,1.0,1.0,93,0.00,,,0.34,Wunderground v.1.15,2013-04-17 14:02:00,
2013-04-17 10:04:00,59.2,57.2,30.13,East,90,0.0,1.0,93,0.00,,,0.34,Wunderground v.1.15,2013-04-17 14:04:00,
2013-04-17 10:05:00,59.2,57.2,30.13,East,90,0.0,1.0,93,0.00,,,0.34,Wunderground v.1.15,2013-04-17 14:05:00,
2013-04-17 10:07:00,59.2,57.2,30.13,East,90,0.0,1.0,93,0.00,,,0.34,Wunderground v.1.15,2013-04-17 14:07:00,
2013-04-17 10:11:00,59.2,57.2,30.13,East,86,0.0,0.0,93,0.00,,,0.34,Wunderground v.1.15,2013-04-17 14:11:00,
2013-04-17 10:12:00,59.4,57.4,30.13,East,86,0.0,0.0,93,0.00,,,0.34,Wunderground v.1.15,2013-04-17 14:12:00,
2013-04-17 10:13:00,59.4,57.4,30.13,East,86,0.0,0.0,93,0.00,,,0.34,Wunderground v.1.15,2013-04-17 14:13:00,
2013-04-17 10:14:00,59.4,57.4,30.13,East,92,0.0,2.0,93,0.00,,,0.34,Wunderground v.1.15,2013-04-17 14:14:00,
2013-04-17 10:18:00,59.4,57.4,30.13,ENE,78,0.0,2.0,93,0.00,,,0.34,Wunderground v.1.15,2013-04-17 14:18:00,
2013-04-17 10:19:00,59.4,57.4,30.13,ENE,78,0.0,2.0,93,0.00,,,0.34,Wunderground v.1.15,2013-04-17 14:19:00,
2013-04-17 10:20:00,59.4,57.4,30.13,East,79,0.0,0.0,93,0.00,,,0.34,Wunderground v.1.15,2013-04-17 14:20:00,
2013-04-17 10:21:00,59.5,57.5,30.13,ENE,78,0.0,0.0,93,0.00,,,0.34,Wunderground v.1.15,2013-04-17 14:21:00,
2013-04-17 10:25:00,59.5,57.5,30.13,East,83,1.0,1.0,93,0.00,,,0.34,Wunderground v.1.15,2013-04-17 14:25:00,
2013-04-17 10:26:00,59.5,57.5,30.13,East,88,0.0,2.0,93,0.00,,,0.34,Wunderground v.1.15,2013-04-17 14:26:00,
2013-04-17 10:27:00,59.7,57.7,30.13,East,88,1.0,2.0,93,0.00,,,0.34,Wunderground v.1.15,2013-04-17 14:27:00,
2013-04-17 10:30:00,59.7,57.7,30.13,East,88,1.0,1.0,93,0.00,,,0.34,Wunderground v.1.15,2013-04-17 14:30:00,
2013-04-17 10:31:00,59.8,57.8,30.13,East,92,1.0,1.0,93,0.00,,,0.34,Wunderground v.1.15,2013-04-17 14:31:00,
2013-04-17 10:33:00,59.7,57.7,30.13,East,95,1.0,3.0,93,0.00,,,0.34,Wunderground v.1.15,2013-04-17 14:33:00,
2013-04-17 10:35:00,59.8,57.8,30.13,East,82,1.0,5.0,93,0.00,,,0.34,Wunderground v.1.15,2013-04-17 14:35:00,
2013-04-17 10:36:00,59.8,57.8,30.13,East,90,1.0,5.0,93,0.00,,,0.34,Wunderground v.1.15,2013-04-17 14:36:00,
2013-04-17 10:37:00,59.8,57.8,30.13,East,89,2.0,5.0,93,0.00,,,0.34,Wunderground v.1.15,2013-04-17 14:37:00,
2013-04-17 10:39:00,60.0,58.0,30.13,East,97,2.0,5.0,93,0.00,,,0.34,Wunderground v.1.15,2013-04-17 14:39:00,
2013-04-17 10:40:00,60.0,58.0,30.13,East,85,2.0,2.0,93,0.00,,,0.34,Wunderground v.1.15,2013-04-17 14:40:00,
2013-04-17 10:42:00,60.1,58.1,30.13,ENE,73,3.0,3.0,93,0.00,,,0.34,Wunderground v.1.15,2013-04-17 14:42:00,
2013-04-17 10:47:00,60.3,58.0,30.13,ENE,72,3.0,5.0,92,0.00,,,0.34,Wunderground v.1.15,2013-04-17 14:47:00,
2013-04-17 10:48:00,60.4,58.4,30.13,ENE,72,3.0,5.0,93,0.00,,,0.34,Wunderground v.1.15,2013-04-17 14:48:00,
2013-04-17 10:49:00,60.4,58.4,30.13,East,97,3.0,5.0,93,0.00,,,0.34,Wunderground v.1.15,2013-04-17 14:49:00,
2013-04-17 10:54:00,60.6,58.3,30.13,ESE,110,4.0,6.0,92,0.00,,,0.34,Wunderground v.1.15,2013-04-17 14:54:00,
2013-04-17 10:55:00,60.6,58.3,30.13,ESE,103,4.0,6.0,92,0.00,,,0.34,Wunderground v.1.15,2013-04-17 14:55:00,
2013-04-17 10:56:00,60.6,58.3,30.13,ESE,103,4.0,6.0,92,0.00,,,0.34,Wunderground v.1.15,2013-04-17 14:56:00,
2013-04-17 11:00:00,60.9,58.6,30.13,East,88,4.0,4.0,92,0.00,,,0.34,Wunderground v.1.15,2013-04-17 15:00:00,
2013-04-17 11:01:00,60.9,58.6,30.13,East,100,4.0,4.0,92,0.00,,,0.34,Wunderground v.1.15,2013-04-17 15:01:00,
2013-04-17 11:02:00,60.9,58.6,30.13,ENE,78,4.0,4.0,92,0.00,,,0.34,Wunderground v.1.15,2013-04-17 15:02:00,
2013-04-17 11:03:00,61.0,58.7,30.13,East,89,4.0,4.0,92,0.00,,,0.34,Wunderground v.1.15,2013-04-17 15:03:00,
2013-04-17 11:04:00,61.0,58.7,30.13,East,95,4.0,4.0,92,0.00,,,0.34,Wunderground v.1.15,2013-04-17 15:04:00,
2013-04-17 11:10:00,61.4,58.7,30.13,East,89,4.0,4.0,91,0.00,,,0.34,Wunderground v.1.15,2013-04-17 15:10:00,
2013-04-17 11:11:00,61.4,58.7,30.13,East,90,4.0,6.0,91,0.00,,,0.34,Wunderground v.1.15,2013-04-17 15:11:00,
2013-04-17 11:12:00,61.4,58.7,30.13,East,88,4.0,6.0,91,0.00,,,0.34,Wunderground v.1.15,2013-04-17 15:12:00,
2013-04-17 11:13:00,61.2,58.6,30.13,ENE,66,5.0,6.0,91,0.00,,,0.34,Wunderground v.1.15,2013-04-17 15:13:00,
2013-04-17 11:15:00,61.4,58.7,30.13,ESE,109,5.0,6.0,91,0.00,,,0.34,Wunderground v.1.15,2013-04-17 15:15:00,
2013-04-17 11:17:00,61.4,58.7,30.13,East,92,5.0,6.0,91,0.00,,,0.34,Wunderground v.1.15,2013-04-17 15:17:00,
2013-04-17 11:18:00,61.4,58.7,30.13,ESE,103,5.0,6.0,91,0.00,,,0.34,Wunderground v.1.15,2013-04-17 15:18:00,
2013-04-17 11:20:00,61.5,58.8,30.13,East,90,4.0,5.0,91,0.00,,,0.34,Wunderground v.1.15,2013-04-17 15:20:00,
2013-04-17 11:24:00,61.4,58.7,30.13,East,90,5.0,6.0,91,0.00,,,0.34,Wunderground v.1.15,2013-04-17 15:24:00,
2013-04-17 11:25:00,61.4,58.7,30.13,East,100,5.0,6.0,91,0.00,,,0.34,Wunderground v.1.15,2013-04-17 15:25:00,
2013-04-17 11:26:00,61.5,58.8,30.13,ESE,110,5.0,6.0,91,0.00,,,0.34,Wunderground v.1.15,2013-04-17 15:26:00,
2013-04-17 11:28:00,61.7,59.0,30.13,ESE,117,4.0,6.0,91,0.00,,,0.34,Wunderground v.1.15,2013-04-17 15:28:00,
2013-04-17 11:32:00,62.0,59.3,30.13,ESE,114,4.0,4.0,91,0.00,,,0.34,Wunderground v.1.15,2013-04-17 15:32:00,
2013-04-17 11:33:00,62.0,59.3,30.13,East,96,4.0,4.0,91,0.00,,,0.34,Wunderground v.1.15,2013-04-17 15:33:00,
2013-04-17 11:34:00,62.0,59.3,30.13,ESE,103,4.0,5.0,91,0.00,,,0.34,Wunderground v.1.15,2013-04-17 15:34:00,
2013-04-17 11:36:00,62.0,59.3,30.13,ESE,119,4.0,5.0,91,0.00,,,0.34,Wunderground v.1.15,2013-04-17 15:36:00,
2013-04-17 11:38:00,62.1,59.4,30.13,East,79,4.0,7.0,91,0.00,,,0.34,Wunderground v.1.15,2013-04-17 15:38:00,
2013-04-17 11:39:00,62.0,59.3,30.13,ESE,103,4.0,7.0,91,0.00,,,0.34,Wunderground v.1.15,2013-04-17 15:39:00,
2013-04-17 11:40:00,62.0,59.3,30.13,East,88,4.0,4.0,91,0.00,,,0.34,Wunderground v.1.15,2013-04-17 15:40:00,
2013-04-17 11:41:00,62.0,59.3,30.13,ENE,66,4.0,6.0,91,0.00,,,0.34,Wunderground v.1.15,2013-04-17 15:41:00,
2013-04-17 11:42:00,62.0,59.3,30.13,ESE,110,4.0,6.0,91,0.00,,,0.34,Wunderground v.1.15,2013-04-17 15:42:00,
2013-04-17 11:47:00,62.1,59.4,30.12,ESE,104,4.0,9.0,91,0.00,,,0.34,Wunderground v.1.15,2013-04-17 15:47:00,
2013-04-17 11:48:00,62.0,59.3,30.12,ESE,104,5.0,9.0,91,0.00,,,0.34,Wunderground v.1.15,2013-04-17 15:48:00,
2013-04-17 11:49:00,62.0,59.0,30.12,East,89,5.0,9.0,90,0.00,,,0.34,Wunderground v.1.15,2013-04-17 15:49:00,
2013-04-17 11:50:00,62.0,59.0,30.12,East,100,5.0,5.0,90,0.00,,,0.34,Wunderground v.1.15,2013-04-17 15:50:00,
2013-04-17 11:54:00,62.5,59.8,30.12,East,100,6.0,9.0,91,0.00,,,0.34,Wunderground v.1.15,2013-04-17 15:54:00,
2013-04-17 11:57:00,62.5,59.5,30.12,ESE,114,7.0,10.0,90,0.00,,,0.34,Wunderground v.1.15,2013-04-17 15:57:00,
2013-04-17 11:58:00,62.5,59.5,30.12,ESE,109,7.0,10.0,90,0.00,,,0.34,Wunderground v.1.15,2013-04-17 15:58:00,
2013-04-17 12:01:00,62.3,59.3,30.11,ESE,102,7.0,8.0,90,0.00,,,0.34,Wunderground v.1.15,2013-04-17 16:01:00,
2013-04-17 12:02:00,62.3,59.3,30.11,East,96,7.0,8.0,90,0.00,,,0.34,Wunderground v.1.15,2013-04-17 16:02:00,
2013-04-17 12:06:00,62.5,59.5,30.11,ESE,119,6.0,9.0,90,0.00,,,0.34,Wunderground v.1.15,2013-04-17 16:06:00,
2013-04-17 12:07:00,62.5,59.5,30.11,ESE,119,6.0,9.0,90,0.00,,,0.34,Wunderground v.1.15,2013-04-17 16:07:00,
2013-04-17 12:10:00,62.5,59.5,30.11,ESE,119,5.0,6.0,90,0.00,,,0.34,Wunderground v.1.15,2013-04-17 16:10:00,
2013-04-17 12:11:00,62.5,59.5,30.11,ESE,107,5.0,6.0,90,0.00,,,0.34,Wunderground v.1.15,2013-04-17 16:11:00,
2013-04-17 12:13:00,62.5,59.5,30.11,East,99,5.0,6.0,90,0.00,,,0.34,Wunderground v.1.15,2013-04-17 16:13:00,
2013-04-17 12:15:00,62.6,59.6,30.10,East,96,5.0,6.0,90,0.00,,,0.34,Wunderground v.1.15,2013-04-17 16:15:00,
2013-04-17 12:16:00,62.6,59.6,30.10,East,92,5.0,6.0,90,0.00,,,0.34,Wunderground v.1.15,2013-04-17 16:16:00,
2013-04-17 12:20:00,62.8,59.8,30.10,ESE,102,4.0,4.0,90,0.00,,,0.34,Wunderground v.1.15,2013-04-17 16:20:00,
2013-04-17 12:21:00,62.8,59.8,30.10,ESE,116,4.0,8.0,90,0.00,,,0.34,Wunderground v.1.15,2013-04-17 16:21:00,
2013-04-17 12:23:00,62.8,59.8,30.10,East,97,5.0,8.0,90,0.00,,,0.34,Wunderground v.1.15,2013-04-17 16:23:00,
2013-04-17 12:24:00,62.8,59.8,30.10,East,95,5.0,8.0,90,0.00,,,0.34,Wunderground v.1.15,2013-04-17 16:24:00,
2013-04-17 12:25:00,62.9,59.9,30.10,ESE,112,5.0,8.0,90,0.00,,,0.34,Wunderground v.1.15,2013-04-17 16:25:00,
2013-04-17 12:28:00,63.1,60.1,30.10,ESE,104,5.0,8.0,90,0.00,,,0.34,Wunderground v.1.15,2013-04-17 16:28:00,
2013-04-17 12:29:00,62.9,59.6,30.10,ESE,121,5.0,8.0,89,0.00,,,0.34,Wunderground v.1.15,2013-04-17 16:29:00,
2013-04-17 12:31:00,63.1,59.8,30.10,ESE,106,6.0,6.0,89,0.00,,,0.34,Wunderground v.1.15,2013-04-17 16:31:00,
2013-04-17 12:32:00,63.1,59.8,30.10,ESE,104,6.0,6.0,89,0.00,,,0.34,Wunderground v.1.15,2013-04-17 16:32:00,
2013-04-17 12:35:00,63.2,60.2,30.10,ESE,117,5.0,6.0,90,0.00,,,0.34,Wunderground v.1.15,2013-04-17 16:35:00,
2013-04-17 12:36:00,63.6,60.6,30.10,ESE,117,5.0,6.0,90,0.00,,,0.34,Wunderground v.1.15,2013-04-17 16:36:00,
2013-04-17 12:37:00,63.7,60.7,30.10,East,88,5.0,6.0,90,0.00,,,0.34,Wunderground v.1.15,2013-04-17 16:37:00,
2013-04-17 12:39:00,63.9,60.9,30.10,ESE,102,4.0,6.0,90,0.00,,,0.34,Wunderground v.1.15,2013-04-17 16:39:00,
2013-04-17 12:41:00,64.0,60.7,30.10,ESE,109,4.0,4.0,89,0.00,,,0.34,Wunderground v.1.15,2013-04-17 16:41:00,
2013-04-17 12:43:00,64.4,61.4,30.10,East,97,3.0,5.0,90,0.00,,,0.34,Wunderground v.1.15,2013-04-17 16:43:00,
2013-04-17 12:44:00,64.4,61.1,30.10,ESE,117,3.0,5.0,89,0.00,,,0.34,Wunderground v.1.15,2013-04-17 16:44:00,
2013-04-17 12:45:00,64.5,61.2,30.09,ESE,107,3.0,5.0,89,0.00,,,0.34,Wunderground v.1.15,2013-04-17 16:45:00,
2013-04-17 12:46:00,64.5,61.2,30.09,ESE,107,3.0,5.0,89,0.00,,,0.34,Wunderground v.1.15,2013-04-17 16:46:00,
2013-04-17 12:50:00,64.7,61.4,30.09,ESE,102,3.0,5.0,89,0.00,,,0.34,Wunderground v.1.15,2013-04-17 16:50:00,
2013-04-17 12:52:00,64.8,61.2,30.09,ESE,102,3.0,5.0,88,0.00,,,0.34,Wunderground v.1.15,2013-04-17 16:52:00,
2013-04-17 12:53:00,65.0,61.7,30.09,ESE,102,3.0,5.0,89,0.00,,,0.34,Wunderground v.1.15,2013-04-17 16:53:00,
2013-04-17 12:57:00,65.3,61.7,30.09,ENE,78,2.0,5.0,88,0.00,,,0.34,Wunderground v.1.15,2013-04-17 16:57:00,
2013-04-17 12:58:00,65.3,61.7,30.09,East,82,2.0,5.0,88,0.00,,,0.34,Wunderground v.1.15,2013-04-17 16:58:00,
2013-04-17 12:59:00,65.5,61.9,30.09,East,88,1.0,5.0,88,0.00,,,0.34,Wunderground v.1.15,2013-04-17 16:59:00,
2013-04-17 13:04:00,65.7,61.7,30.08,East,97,2.0,6.0,87,0.00,,,0.34,Wunderground v.1.15,2013-04-17 17:04:00,
2013-04-17 13:06:00,65.8,61.8,30.08,SE,127,3.0,6.0,87,0.00,,,0.34,Wunderground v.1.15,2013-04-17 17:06:00,
2013-04-17 13:07:00,65.8,62.1,30.08,ESE,112,3.0,6.0,88,0.00,,,0.34,Wunderground v.1.15,2013-04-17 17:07:00,
2013-04-17 13:09:00,66.0,62.0,30.08,East,92,3.0,6.0,87,0.00,,,0.34,Wunderground v.1.15,2013-04-17 17:09:00,
2013-04-17 13:11:00,66.1,62.4,30.08,ESE,112,3.0,4.0,88,0.00,,,0.34,Wunderground v.1.15,2013-04-17 17:11:00,
2013-04-17 13:12:00,66.3,62.6,30.08,ESE,117,3.0,4.0,88,0.00,,,0.34,Wunderground v.1.15,2013-04-17 17:12:00,
2013-04-17 13:13:00,66.5,62.5,30.08,ESE,120,3.0,4.0,87,0.00,,,0.34,Wunderground v.1.15,2013-04-17 17:13:00,
2013-04-17 13:17:00,66.9,62.9,30.08,East,100,1.0,4.0,87,0.00,,,0.34,Wunderground v.1.15,2013-04-17 17:17:00,
2013-04-17 13:18:00,67.1,63.1,30.08,East,92,1.0,4.0,87,0.00,,,0.34,Wunderground v.1.15,2013-04-17 17:18:00,
2013-04-17 13:19:00,67.3,63.3,30.08,East,88,1.0,4.0,87,0.00,,,0.34,Wunderground v.1.15,2013-04-17 17:19:00,
2013-04-17 13:20:00,67.3,63.0,30.08,East,88,1.0,1.0,86,0.00,,,0.34,Wunderground v.1.15,2013-04-17 17:20:00,
2013-04-17 13:25:00,67.9,63.6,30.08,ENE,78,1.0,4.0,86,0.00,,,0.34,Wunderground v.1.15,2013-04-17 17:25:00,
2013-04-17 13:26:00,67.9,63.2,30.08,East,83,1.0,5.0,85,0.00,,,0.34,Wunderground v.1.15,2013-04-17 17:26:00,
2013-04-17 13:27:00,67.9,63.2,30.08,East,88,2.0,5.0,85,0.00,,,0.34,Wunderground v.1.15,2013-04-17 17:27:00,
2013-04-17 13:29:00,68.1,63.4,30.08,East,90,2.0,5.0,85,0.00,,,0.34,Wunderground v.1.15,2013-04-17 17:29:00,
2013-04-17 13:31:00,68.1,63.4,30.07,ESE,102,3.0,3.0,85,0.00,,,0.34,Wunderground v.1.15,2013-04-17 17:31:00,
2013-04-17 13:32:00,68.3,63.9,30.07,SE,126,3.0,3.0,86,0.00,,,0.34,Wunderground v.1.15,2013-04-17 17:32:00,
2013-04-17 13:35:00,68.4,63.4,30.07,ESE,113,3.0,3.0,84,0.00,,,0.34,Wunderground v.1.15,2013-04-17 17:35:00,
2013-04-17 13:37:00,68.6,63.9,30.07,ESE,113,2.0,3.0,85,0.00,,,0.34,Wunderground v.1.15,2013-04-17 17:37:00,
2013-04-17 13:39:00,68.6,63.6,30.07,East,88,2.0,3.0,84,0.00,,,0.34,Wunderground v.1.15,2013-04-17 17:39:00,
2013-04-17 13:42:00,69.1,64.4,30.07,East,82,1.0,2.0,85,0.00,,,0.34,Wunderground v.1.15,2013-04-17 17:42:00,
2013-04-17 13:45:00,69.1,64.1,30.06,ESE,110,1.0,5.0,84,0.00,,,0.34,Wunderground v.1.15,2013-04-17 17:45:00,
2013-04-17 13:48:00,69.4,64.4,30.06,SE,126,1.0,5.0,84,0.00,,,0.34,Wunderground v.1.15,2013-04-17 17:48:00,
2013-04-17 13:50:00,69.9,64.8,30.06,ESE,120,1.0,1.0,84,0.00,,,0.34,Wunderground v.1.15,2013-04-17 17:50:00,
2013-04-17 13:51:00,70.1,65.4,30.06,NE,49,1.0,1.0,85,0.00,,,0.34,Wunderground v.1.15,2013-04-17 17:51:00,
2013-04-17 13:53:00,70.4,65.0,30.06,ESE,116,1.0,5.0,83,0.00,,,0.34,Wunderground v.1.15,2013-04-17 17:53:00,
2013-04-17 13:55:00,70.6,64.8,30.06,East,89,1.0,5.0,82,0.00,,,0.34,Wunderground v.1.15,2013-04-17 17:55:00,
2013-04-17 13:56:00,70.6,65.2,30.06,East,88,1.0,5.0,83,0.00,,,0.34,Wunderground v.1.15,2013-04-17 17:56:00,
2013-04-17 13:59:00,70.6,64.8,30.06,ESE,123,2.0,5.0,82,0.00,,,0.34,Wunderground v.1.15,2013-04-17 17:59:00,
2013-04-17 14:02:00,70.8,65.0,30.05,ESE,103,2.0,5.0,82,0.00,,,0.34,Wunderground v.1.15,2013-04-17 18:02:00,
2013-04-17 14:05:00,71.1,65.3,30.05,ESE,113,1.0,5.0,82,0.00,,,0.34,Wunderground v.1.15,2013-04-17 18:05:00,
2013-04-17 14:07:00,71.4,66.0,30.05,East,90,1.0,5.0,83,0.00,,,0.34,Wunderground v.1.15,2013-04-17 18:07:00,
2013-04-17 14:09:00,71.8,66.0,30.05,ESE,113,2.0,6.0,82,0.00,,,0.34,Wunderground v.1.15,2013-04-17 18:09:00,
2013-04-17 14:11:00,71.8,65.7,30.05,East,95,2.0,5.0,81,0.00,,,0.34,Wunderground v.1.15,2013-04-17 18:11:00,
2013-04-17 14:12:00,71.8,65.7,30.05,ESE,103,3.0,5.0,81,0.00,,,0.34,Wunderground v.1.15,2013-04-17 18:12:00,
2013-04-17 14:15:00,72.0,65.8,30.05,East,96,3.0,5.0,81,0.00,,,0.34,Wunderground v.1.15,2013-04-17 18:15:00,
2013-04-17 14:16:00,72.1,65.9,30.05,East,86,3.0,5.0,81,0.00,,,0.34,Wunderground v.1.15,2013-04-17 18:16:00,
2013-04-17 14:17:00,72.1,65.6,30.05,ESE,119,4.0,5.0,80,0.00,,,0.34,Wunderground v.1.15,2013-04-17 18:17:00,
2013-04-17 14:19:00,72.3,65.8,30.05,East,86,3.0,5.0,80,0.00,,,0.34,Wunderground v.1.15,2013-04-17 18:19:00,
2013-04-17 14:20:00,72.5,66.0,30.05,East,82,3.0,3.0,80,0.00,,,0.34,Wunderground v.1.15,2013-04-17 18:20:00,
2013-04-17 14:23:00,72.8,66.6,30.05,East,97,3.0,3.0,81,0.00,,,0.34,Wunderground v.1.15,2013-04-17 18:23:00,
2013-04-17 14:24:00,73.0,66.8,30.05,ESE,123,3.0,6.0,81,0.00,,,0.34,Wunderground v.1.15,2013-04-17 18:24:00,
2013-04-17 14:25:00,73.2,66.7,30.05,ESE,121,3.0,6.0,80,0.00,,,0.34,Wunderground v.1.15,2013-04-17 18:25:00,
2013-04-17 14:27:00,73.5,66.6,30.05,ESE,117,2.0,6.0,79,0.00,,,0.34,Wunderground v.1.15,2013-04-17 18:27:00,
2013-04-17 14:29:00,73.5,66.2,30.05,ESE,109,3.0,7.0,78,0.00,,,0.34,Wunderground v.1.15,2013-04-17 18:29:00,
2013-04-17 14:30:00,73.7,66.8,30.04,SE,140,3.0,3.0,79,0.00,,,0.34,Wunderground v.1.15,2013-04-17 18:30:00,
2013-04-17 14:32:00,73.7,66.4,30.04,ESE,116,4.0,7.0,78,0.00,,,0.34,Wunderground v.1.15,2013-04-17 18:32:00,
2013-04-17 14:33:00,73.8,66.5,30.04,SE,126,4.0,7.0,78,0.00,,,0.34,Wunderground v.1.15,2013-04-17 18:33:00,
2013-04-17 14:34:00,73.8,66.5,30.04,SE,127,4.0,7.0,78,0.00,,,0.34,Wunderground v.1.15,2013-04-17 18:34:00,
2013-04-17 14:36:00,73.8,66.1,30.04,ESE,113,4.0,7.0,77,0.00,,,0.34,Wunderground v.1.15,2013-04-17 18:36:00,
2013-04-17 14:37:00,73.8,66.1,30.04,ESE,109,4.0,7.0,77,0.00,,,0.34,Wunderground v.1.15,2013-04-17 18:37:00,
2013-04-17 14:41:00,74.0,67.1,30.04,ESE,102,4.0,5.0,79,0.00,,,0.34,Wunderground v.1.15,2013-04-17 18:41:00,
2013-04-17 14:44:00,74.4,66.7,30.04,East,97,4.0,8.0,77,0.00,,,0.34,Wunderground v.1.15,2013-04-17 18:44:00,
2013-04-17 14:47:00,74.4,66.7,30.02,East,92,5.0,8.0,77,0.00,,,0.34,Wunderground v.1.15,2013-04-17 18:47:00,
2013-04-17 14:48:00,74.5,66.8,30.02,East,90,5.0,8.0,77,0.00,,,0.34,Wunderground v.1.15,2013-04-17 18:48:00,
2013-04-17 14:50:00,74.7,67.0,30.02,ESE,106,5.0,5.0,77,0.00,,,0.34,Wunderground v.1.15,2013-04-17 18:50:00,
2013-04-17 14:52:00,74.9,67.2,30.02,East,93,5.0,7.0,77,0.00,,,0.34,Wunderground v.1.15,2013-04-17 18:52:00,
2013-04-17 14:55:00,75.1,67.0,30.02,ESE,114,5.0,8.0,76,0.00,,,0.34,Wunderground v.1.15,2013-04-17 18:55:00,
2013-04-17 14:56:00,75.1,67.4,30.02,ESE,104,6.0,8.0,77,0.00,,,0.34,Wunderground v.1.15,2013-04-17 18:56:00,
2013-04-17 14:58:00,75.2,67.1,30.02,ESE,112,6.0,8.0,76,0.00,,,0.34,Wunderground v.1.15,2013-04-17 18:58:00,
2013-04-17 14:59:00,75.2,67.5,30.02,ESE,114,5.0,8.0,77,0.00,,,0.34,Wunderground v.1.15,2013-04-17 18:59:00,
2013-04-17 15:00:00,75.6,67.9,30.01,ESE,117,5.0,5.0,77,0.00,,,0.34,Wunderground v.1.15,2013-04-17 19:00:00,
2013-04-17 15:02:00,75.8,67.3,30.01,ESE,103,4.0,5.0,75,0.00,,,0.34,Wunderground v.1.15,2013-04-17 19:02:00,
2013-04-17 15:03:00,75.8,67.3,30.01,ESE,114,4.0,6.0,75,0.00,,,0.34,Wunderground v.1.15,2013-04-17 19:03:00,
2013-04-17 15:05:00,76.3,68.2,30.01,ESE,106,4.0,7.0,76,0.00,,,0.34,Wunderground v.1.15,2013-04-17 19:05:00,
2013-04-17 15:07:00,76.3,67.8,30.01,ESE,106,4.0,7.0,75,0.00,,,0.34,Wunderground v.1.15,2013-04-17 19:07:00,
2013-04-17 15:08:00,76.3,68.2,30.01,ESE,103,4.0,7.0,76,0.00,,,0.34,Wunderground v.1.15,2013-04-17 19:08:00,
2013-04-17 15:11:00,76.6,68.5,30.01,ESE,117,4.0,6.0,76,0.00,,,0.34,Wunderground v.1.15,2013-04-17 19:11:00,
2013-04-17 15:12:00,76.6,68.1,30.01,ESE,112,5.0,7.0,75,0.00,,,0.34,Wunderground v.1.15,2013-04-17 19:12:00,
2013-04-17 15:16:00,76.8,68.3,30.00,ESE,113,4.0,7.0,75,0.00,,,0.34,Wunderground v.1.15,2013-04-17 19:16:00,
2013-04-17 15:17:00,76.8,68.3,30.00,ESE,110,4.0,8.0,75,0.00,,,0.34,Wunderground v.1.15,2013-04-17 19:17:00,
2013-04-17 15:18:00,76.6,67.7,30.00,ESE,106,5.0,10.0,74,0.00,,,0.34,Wunderground v.1.15,2013-04-17 19:18:00,
2013-04-17 15:19:00,76.6,67.3,30.00,ESE,107,5.0,10.0,73,0.00,,,0.34,Wunderground v.1.15,2013-04-17 19:19:00,
2013-04-17 15:22:00,76.8,67.9,30.00,ESE,102,5.0,6.0,74,0.00,,,0.34,Wunderground v.1.15,2013-04-17 19:22:00,
2013-04-17 15:23:00,76.8,67.9,30.00,ESE,110,5.0,6.0,74,0.00,,,0.34,Wunderground v.1.15,2013-04-17 19:23:00,
2013-04-17 15:26:00,77.0,68.1,30.00,ESE,109,5.0,6.0,74,0.00,,,0.34,Wunderground v.1.15,2013-04-17 19:26:00,
2013-04-17 15:27:00,77.2,68.7,30.00,SE,138,5.0,6.0,75,0.00,,,0.34,Wunderground v.1.15,2013-04-17 19:27:00,
2013-04-17 15:28:00,77.3,68.8,30.00,East,93,4.0,6.0,75,0.00,,,0.34,Wunderground v.1.15,2013-04-17 19:28:00,
2013-04-17 15:31:00,77.2,67.9,30.00,East,92,4.0,5.0,73,0.00,,,0.34,Wunderground v.1.15,2013-04-17 19:31:00,
2013-04-17 15:33:00,77.2,67.5,30.00,ESE,106,4.0,7.0,72,0.00,,,0.34,Wunderground v.1.15,2013-04-17 19:33:00,
2013-04-17 15:34:00,77.3,68.0,30.00,ESE,106,4.0,7.0,73,0.00,,,0.34,Wunderground v.1.15,2013-04-17 19:34:00,
2013-04-17 15:39:00,77.2,68.3,30.00,ESE,109,6.0,7.0,74,0.00,,,0.34,Wunderground v.1.15,2013-04-17 19:39:00,
2013-04-17 15:40:00,77.2,68.3,30.00,ESE,113,5.0,5.0,74,0.00,,,0.34,Wunderground v.1.15,2013-04-17 19:40:00,
2013-04-17 15:41:00,77.3,68.4,30.00,SE,126,5.0,5.0,74,0.00,,,0.34,Wunderground v.1.15,2013-04-17 19:41:00,
2013-04-17 15:43:00,77.5,68.2,30.00,East,93,5.0,7.0,73,0.00,,,0.34,Wunderground v.1.15,2013-04-17 19:43:00,
2013-04-17 15:46:00,77.3,68.0,29.99,ESE,117,5.0,8.0,73,0.00,,,0.34,Wunderground v.1.15,2013-04-17 19:46:00,
2013-04-17 15:47:00,77.3,67.6,29.99,ESE,117,5.0,9.0,72,0.00,,,0.34,Wunderground v.1.15,2013-04-17 19:47:00,
2013-04-17 15:48:00,77.3,67.6,29.99,ESE,104,5.0,9.0,72,0.00,,,0.34,Wunderground v.1.15,2013-04-17 19:48:00,
2013-04-17 15:50:00,77.3,67.6,29.99,East,100,6.0,6.0,72,0.00,,,0.34,Wunderground v.1.15,2013-04-17 19:50:00,
2013-04-17 15:55:00,77.5,68.6,29.99,ESE,107,4.0,6.0,74,0.00,,,0.34,Wunderground v.1.15,2013-04-17 19:55:00,
2013-04-17 15:56:00,77.9,68.5,29.99,East,88,4.0,6.0,73,0.00,,,0.34,Wunderground v.1.15,2013-04-17 19:56:00,
2013-04-17 15:58:00,77.9,67.7,29.99,East,92,4.0,11.0,71,0.00,,,0.34,Wunderground v.1.15,2013-04-17 19:58:00,
2013-04-17 16:00:00,78.1,67.9,29.98,East,90,4.0,7.0,71,0.00,,,0.34,Wunderground v.1.15,2013-04-17 20:00:00,
2013-04-17 16:01:00,78.1,67.9,29.98,ESE,117,4.0,10.0,71,0.00,,,0.34,Wunderground v.1.15,2013-04-17 20:01:00,
2013-04-17 16:02:00,77.9,67.3,29.98,SE,131,4.0,10.0,70,0.00,,,0.34,Wunderground v.1.15,2013-04-17 20:02:00,
2013-04-17 16:06:00,78.2,67.6,29.98,ESE,113,5.0,10.0,70,0.00,,,0.34,Wunderground v.1.15,2013-04-17 20:06:00,
2013-04-17 16:07:00,78.2,67.6,29.98,ESE,123,5.0,10.0,70,0.00,,,0.34,Wunderground v.1.15,2013-04-17 20:07:00,
2013-04-17 16:08:00,78.4,68.2,29.98,ESE,107,5.0,10.0,71,0.00,,,0.34,Wunderground v.1.15,2013-04-17 20:08:00,
2013-04-17 16:09:00,78.4,67.8,29.98,ESE,104,5.0,10.0,70,0.00,,,0.34,Wunderground v.1.15,2013-04-17 20:09:00,
2013-04-17 16:11:00,78.4,67.8,29.98,East,90,6.0,7.0,70,0.00,,,0.34,Wunderground v.1.15,2013-04-17 20:11:00,
2013-04-17 16:16:00,78.4,67.8,29.96,ESE,121,7.0,9.0,70,0.00,,,0.34,Wunderground v.1.15,2013-04-17 20:16:00,
2013-04-17 16:18:00,78.4,67.8,29.96,ESE,119,7.0,9.0,70,0.00,,,0.34,Wunderground v.1.15,2013-04-17 20:18:00,
2013-04-17 16:19:00,78.6,68.4,29.96,East,100,7.0,9.0,71,0.00,,,0.34,Wunderground v.1.15,2013-04-17 20:19:00,
2013-04-17 16:20:00,78.6,68.4,29.96,ESE,112,6.0,8.0,71,0.00,,,0.34,Wunderground v.1.15,2013-04-17 20:20:00,
2013-04-17 16:21:00,78.6,68.4,29.96,ESE,116,6.0,8.0,71,0.00,,,0.34,Wunderground v.1.15,2013-04-17 20:21:00,
2013-04-17 16:26:00,78.4,67.8,29.96,SSE,147,4.0,8.0,70,0.00,,,0.34,Wunderground v.1.15,2013-04-17 20:26:00,
2013-04-17 16:27:00,78.4,67.8,29.96,SSE,164,4.0,8.0,70,0.00,,,0.34,Wunderground v.1.15,2013-04-17 20:27:00,
2013-04-17 16:29:00,78.4,67.8,29.96,SSE,164,3.0,8.0,70,0.00,,,0.34,Wunderground v.1.15,2013-04-17 20:29:00,
2013-04-17 16:30:00,78.4,68.2,29.97,SSE,168,2.0,2.0,71,0.00,,,0.34,Wunderground v.1.15,2013-04-17 20:30:00,
2013-04-17 16:31:00,78.6,68.4,29.97,SSE,168,1.0,2.0,71,0.00,,,0.34,Wunderground v.1.15,2013-04-17 20:31:00,
2013-04-17 16:32:00,78.6,67.6,29.97,SW,219,1.0,4.0,69,0.00,,,0.34,Wunderground v.1.15,2013-04-17 20:32:00,
2013-04-17 16:33:00,78.6,68.0,29.97,SE,143,1.0,4.0,70,0.00,,,0.34,Wunderground v.1.15,2013-04-17 20:33:00,
2013-04-17 16:37:00,77.7,68.4,29.97,ESE,106,4.0,12.0,73,0.00,,,0.34,Wunderground v.1.15,2013-04-17 20:37:00,
2013-04-17 16:38:00,77.3,68.4,29.97,East,99,5.0,16.0,74,0.00,,,0.34,Wunderground v.1.15,2013-04-17 20:38:00,
2013-04-17 16:40:00,77.0,68.1,29.97,ESE,121,8.0,10.0,74,0.00,,,0.34,Wunderground v.1.15,2013-04-17 20:40:00,
2013-04-17 16:44:00,76.5,66.4,29.97,SE,126,11.0,14.0,71,0.00,,,0.34,Wunderground v.1.15,2013-04-17 20:44:00,
2013-04-17 16:45:00,75.9,65.8,29.97,SSE,151,11.0,14.0,71,0.00,,,0.34,Wunderground v.1.15,2013-04-17 20:45:00,
2013-04-17 16:46:00,75.1,65.5,29.97,SE,127,11.0,14.0,72,0.00,,,0.34,Wunderground v.1.15,2013-04-17 20:46:00,
2013-04-17 16:50:00,72.8,65.2,29.97,ESE,120,11.0,15.0,77,0.00,,,0.34,Wunderground v.1.15,2013-04-17 20:50:00,
2013-04-17 16:51:00,72.5,64.1,29.97,ESE,120,12.0,15.0,75,0.00,,,0.34,Wunderground v.1.15,2013-04-17 20:51:00,
2013-04-17 16:53:00,71.8,63.8,29.97,ESE,106,12.0,15.0,76,0.00,,,0.34,Wunderground v.1.15,2013-04-17 20:53:00,
2013-04-17 16:55:00,71.4,62.3,29.97,SSE,158,12.0,15.0,73,0.00,,,0.34,Wunderground v.1.15,2013-04-17 20:55:00,
2013-04-17 16:56:00,71.1,62.0,29.97,ESE,120,12.0,15.0,73,0.00,,,0.34,Wunderground v.1.15,2013-04-17 20:56:00,
2013-04-17 16:57:00,70.9,62.2,29.97,ESE,104,12.0,15.0,74,0.00,,,0.34,Wunderground v.1.15,2013-04-17 20:57:00,
2013-04-17 16:58:00,70.8,62.5,29.97,East,100,12.0,17.0,75,0.00,,,0.34,Wunderground v.1.15,2013-04-17 20:58:00,
2013-04-17 17:01:00,70.4,62.5,29.98,SE,141,11.0,14.0,76,0.00,,,0.34,Wunderground v.1.15,2013-04-17 21:01:00,
2013-04-17 17:04:00,70.1,63.3,29.98,ESE,123,12.0,17.0,79,0.00,,,0.35,Wunderground v.1.15,2013-04-17 21:04:00,
2013-04-17 17:06:00,69.9,63.4,29.98,SE,145,12.0,17.0,80,0.00,,,0.35,Wunderground v.1.15,2013-04-17 21:06:00,
2013-04-17 17:07:00,69.8,63.3,29.98,SE,143,12.0,17.0,80,0.00,,,0.35,Wunderground v.1.15,2013-04-17 21:07:00,
2013-04-17 17:08:00,69.8,63.7,29.98,ESE,121,11.0,17.0,81,0.00,,,0.35,Wunderground v.1.15,2013-04-17 21:08:00,
2013-04-17 17:11:00,69.8,64.1,29.98,SSW,205,9.0,10.0,82,0.77,,,0.37,Wunderground v.1.15,2013-04-17 21:11:00,
2013-04-17 17:12:00,69.6,64.2,29.98,ESE,103,8.0,10.0,83,3.03,,,0.42,Wunderground v.1.15,2013-04-17 21:12:00,
2013-04-17 17:14:00,69.4,64.4,29.98,ESE,116,6.0,10.0,84,1.00,,,0.46,Wunderground v.1.15,2013-04-17 21:14:00,
2013-04-17 17:16:00,69.1,64.4,29.97,SE,131,5.0,10.0,85,0.56,,,0.48,Wunderground v.1.15,2013-04-17 21:16:00,
2013-04-17 17:18:00,68.9,64.5,29.97,ESE,114,4.0,10.0,86,0.32,,,0.49,Wunderground v.1.15,2013-04-17 21:18:00,
2013-04-17 17:19:00,68.9,64.5,29.97,SE,124,4.0,10.0,86,0.32,,,0.49,Wunderground v.1.15,2013-04-17 21:19:00,
2013-04-17 17:24:00,68.8,65.1,29.97,SE,124,6.0,9.0,88,0.14,,,0.50,Wunderground v.1.15,2013-04-17 21:24:00,
2013-04-17 17:25:00,68.8,65.1,29.97,ESE,123,6.0,9.0,88,0.14,,,0.50,Wunderground v.1.15,2013-04-17 21:25:00,
2013-04-17 17:26:00,68.8,65.1,29.97,ESE,119,7.0,9.0,88,0.14,,,0.50,Wunderground v.1.15,2013-04-17 21:26:00,
2013-04-17 17:28:00,68.8,65.1,29.97,ESE,113,7.0,9.0,88,0.09,,,0.50,Wunderground v.1.15,2013-04-17 21:28:00,
2013-04-17 17:29:00,68.8,65.1,29.97,ESE,117,7.0,9.0,88,0.08,,,0.50,Wunderground v.1.15,2013-04-17 21:29:00,
2013-04-17 17:31:00,68.9,65.2,29.96,ESE,113,7.0,7.0,88,0.06,,,0.50,Wunderground v.1.15,2013-04-17 21:31:00,
2013-04-17 17:33:00,69.1,65.4,29.96,SE,136,8.0,10.0,88,0.05,,,0.50,Wunderground v.1.15,2013-04-17 21:33:00,
2013-04-17 17:34:00,69.1,65.1,29.96,ESE,120,7.0,10.0,87,0.05,,,0.50,Wunderground v.1.15,2013-04-17 21:34:00,
2013-04-17 17:35:00,69.1,65.1,29.96,ESE,114,7.0,10.0,87,0.04,,,0.50,Wunderground v.1.15,2013-04-17 21:35:00,
2013-04-17 17:38:00,69.6,65.6,29.96,ESE,117,7.0,10.0,87,0.04,,,0.50,Wunderground v.1.15,2013-04-17 21:38:00,
2013-04-17 17:40:00,69.6,65.6,29.96,ESE,123,6.0,6.0,87,0.00,,,0.50,Wunderground v.1.15,2013-04-17 21:40:00,
2013-04-17 17:41:00,69.8,65.4,29.96,ESE,120,6.0,7.0,86,0.00,,,0.50,Wunderground v.1.15,2013-04-17 21:41:00,
2013-04-17 17:42:00,69.8,65.4,29.96,SE,126,6.0,7.0,86,0.00,,,0.50,Wunderground v.1.15,2013-04-17 21:42:00,
2013-04-17 17:45:00,70.1,65.7,29.97,ESE,123,6.0,12.0,86,0.00,,,0.50,Wunderground v.1.15,2013-04-17 21:45:00,
2013-04-17 17:47:00,70.3,65.9,29.97,SE,143,7.0,12.0,86,0.00,,,0.50,Wunderground v.1.15,2013-04-17 21:47:00,
2013-04-17 17:48:00,70.3,65.9,29.97,ESE,116,6.0,12.0,86,0.00,,,0.50,Wunderground v.1.15,2013-04-17 21:48:00,
2013-04-17 17:52:00,70.1,65.4,29.97,SE,131,6.0,8.0,85,0.00,,,0.50,Wunderground v.1.15,2013-04-17 21:52:00,
2013-04-17 17:54:00,69.9,64.8,29.97,ESE,103,6.0,8.0,84,0.00,,,0.50,Wunderground v.1.15,2013-04-17 21:54:00,
2013-04-17 17:56:00,69.8,64.7,29.97,ESE,109,6.0,12.0,84,0.00,,,0.50,Wunderground v.1.15,2013-04-17 21:56:00,
2013-04-17 17:58:00,69.6,64.5,29.97,ESE,112,7.0,12.0,84,0.00,,,0.50,Wunderground v.1.15,2013-04-17 21:58:00,
2013-04-17 17:59:00,69.6,64.5,29.97,ESE,110,7.0,12.0,84,0.00,,,0.50,Wunderground v.1.15,2013-04-17 21:59:00,
2013-04-17 18:01:00,69.4,64.4,29.97,SE,144,8.0,8.0,84,0.00,,,0.50,Wunderground v.1.15,2013-04-17 22:01:00,
2013-04-17 18:04:00,69.4,64.4,29.97,SE,143,8.0,8.0,84,0.00,,,0.50,Wunderground v.1.15,2013-04-17 22:04:00,
2013-04-17 18:05:00,69.3,64.3,29.97,ESE,102,8.0,8.0,84,0.00,,,0.51,Wunderground v.1.15,2013-04-17 22:05:00,
2013-04-17 18:06:00,69.1,64.1,29.97,SSE,162,8.0,8.0,84,0.00,,,0.51,Wunderground v.1.15,2013-04-17 22:06:00,
2013-04-17 18:07:00,69.1,64.4,29.97,SSW,213,7.0,8.0,85,0.00,,,0.51,Wunderground v.1.15,2013-04-17 22:07:00,
2013-04-17 18:08:00,69.1,64.4,29.97,SSE,168,6.0,8.0,85,0.00,,,0.51,Wunderground v.1.15,2013-04-17 22:08:00,
2013-04-17 18:12:00,68.6,64.2,29.97,SE,144,5.0,9.0,86,0.00,,,0.51,Wunderground v.1.15,2013-04-17 22:12:00,
2013-04-17 18:13:00,68.6,64.2,29.97,SE,140,5.0,9.0,86,0.00,,,0.51,Wunderground v.1.15,2013-04-17 22:13:00,
2013-04-17 18:14:00,68.6,64.2,29.97,SSE,160,4.0,9.0,86,0.00,,,0.51,Wunderground v.1.15,2013-04-17 22:14:00,
2013-04-17 18:16:00,68.4,64.0,29.97,South,185,4.0,9.0,86,0.00,,,0.51,Wunderground v.1.15,2013-04-17 22:16:00,
2013-04-17 18:18:00,68.3,63.9,29.97,SSE,148,4.0,9.0,86,0.00,,,0.51,Wunderground v.1.15,2013-04-17 22:18:00,
2013-04-17 18:20:00,68.3,64.3,29.97,SSE,155,5.0,5.0,87,0.00,,,0.51,Wunderground v.1.15,2013-04-17 22:20:00,
2013-04-17 18:21:00,68.3,64.3,29.97,SE,131,4.0,5.0,87,0.00,,,0.51,Wunderground v.1.15,2013-04-17 22:21:00,
2013-04-17 18:22:00,68.1,64.1,29.97,SSE,164,4.0,5.0,87,0.00,,,0.51,Wunderground v.1.15,2013-04-17 22:22:00,
2013-04-17 18:24:00,68.1,64.1,29.97,South,178,4.0,7.0,87,0.00,,,0.51,Wunderground v.1.15,2013-04-17 22:24:00,
2013-04-17 18:27:00,67.9,63.6,29.97,SE,126,5.0,7.0,86,0.00,,,0.51,Wunderground v.1.15,2013-04-17 22:27:00,
2013-04-17 18:28:00,67.8,63.8,29.97,SSE,150,5.0,7.0,87,0.00,,,0.51,Wunderground v.1.15,2013-04-17 22:28:00,
2013-04-17 18:29:00,67.8,63.8,29.97,SSE,150,5.0,7.0,87,0.00,,,0.51,Wunderground v.1.15,2013-04-17 22:29:00,
2013-04-17 18:32:00,67.6,63.6,29.96,SSE,151,4.0,5.0,87,0.00,,,0.51,Wunderground v.1.15,2013-04-17 22:32:00,
2013-04-17 18:33:00,67.6,63.6,29.96,SE,138,4.0,5.0,87,0.00,,,0.51,Wunderground v.1.15,2013-04-17 22:33:00,
2013-04-17 18:34:00,67.6,63.6,29.96,SE,126,4.0,5.0,87,0.00,,,0.51,Wunderground v.1.15,2013-04-17 22:34:00,
2013-04-17 18:36:00,67.6,63.6,29.96,SSE,152,4.0,6.0,87,0.00,,,0.51,Wunderground v.1.15,2013-04-17 22:36:00,
2013-04-17 18:39:00,67.4,63.4,29.96,SE,131,3.0,6.0,87,0.00,,,0.51,Wunderground v.1.15,2013-04-17 22:39:00,
2013-04-17 18:40:00,67.4,63.4,29.96,SSE,152,3.0,3.0,87,0.00,,,0.51,Wunderground v.1.15,2013-04-17 22:40:00,
2013-04-17 18:43:00,67.4,63.4,29.96,SE,127,3.0,3.0,87,0.00,,,0.51,Wunderground v.1.15,2013-04-17 22:43:00,
2013-04-17 18:44:00,67.4,63.4,29.96,SE,140,3.0,3.0,87,0.00,,,0.51,Wunderground v.1.15,2013-04-17 22:44:00,
2013-04-17 18:45:00,67.4,63.4,29.96,SE,133,3.0,6.0,87,0.00,,,0.51,Wunderground v.1.15,2013-04-17 22:45:00,
2013-04-17 18:47:00,67.4,63.4,29.96,ESE,121,3.0,7.0,87,0.00,,,0.51,Wunderground v.1.15,2013-04-17 22:47:00,
2013-04-17 18:49:00,67.4,63.4,29.96,SSE,154,3.0,7.0,87,0.00,,,0.51,Wunderground v.1.15,2013-04-17 22:49:00,
2013-04-17 18:50:00,67.4,63.4,29.96,SE,127,4.0,4.0,87,0.00,,,0.51,Wunderground v.1.15,2013-04-17 22:50:00,
2013-04-17 18:52:00,67.4,63.4,29.96,SE,124,4.0,7.0,87,0.00,,,0.51,Wunderground v.1.15,2013-04-17 22:52:00,
2013-04-17 18:54:00,67.4,63.4,29.96,SSE,154,5.0,7.0,87,0.00,,,0.51,Wunderground v.1.15,2013-04-17 22:54:00,
2013-04-17 18:55:00,67.4,63.4,29.96,ESE,113,5.0,7.0,87,0.00,,,0.51,Wunderground v.1.15,2013-04-17 22:55:00,
2013-04-17 18:57:00,67.4,63.4,29.96,ESE,121,5.0,7.0,87,0.00,,,0.51,Wunderground v.1.15,2013-04-17 22:57:00,
2013-04-17 18:59:00,67.4,63.1,29.96,SE,143,5.0,7.0,86,0.00,,,0.51,Wunderground v.1.15,2013-04-17 22:59:00,
2013-04-17 19:01:00,67.4,63.1,29.96,ESE,110,4.0,7.0,86,0.00,,,0.51,Wunderground v.1.15,2013-04-17 23:01:00,
2013-04-17 19:05:00,67.6,63.3,29.96,South,175,4.0,7.0,86,0.00,,,0.51,Wunderground v.1.15,2013-04-17 23:05:00,
2013-04-17 19:07:00,67.6,63.3,29.96,SE,126,4.0,7.0,86,0.00,,,0.51,Wunderground v.1.15,2013-04-17 23:07:00,
2013-04-17 19:08:00,67.6,63.3,29.96,SE,137,3.0,7.0,86,0.00,,,0.51,Wunderground v.1.15,2013-04-17 23:08:00,
2013-04-17 19:09:00,67.6,63.3,29.96,SSE,147,4.0,7.0,86,0.00,,,0.51,Wunderground v.1.15,2013-04-17 23:09:00,
2013-04-17 19:11:00,67.6,63.3,29.96,ESE,116,3.0,5.0,86,0.00,,,0.51,Wunderground v.1.15,2013-04-17 23:11:00,
2013-04-17 19:12:00,67.6,63.3,29.96,SE,130,3.0,5.0,86,0.00,,,0.51,Wunderground v.1.15,2013-04-17 23:12:00,
2013-04-17 19:14:00,67.6,63.3,29.96,SE,143,3.0,5.0,86,0.00,,,0.51,Wunderground v.1.15,2013-04-17 23:14:00,
2013-04-17 19:15:00,67.6,63.3,29.95,SSE,161,3.0,5.0,86,0.00,,,0.51,Wunderground v.1.15,2013-04-17 23:15:00,
2013-04-17 19:16:00,67.6,63.3,29.95,SSE,161,3.0,5.0,86,0.00,,,0.51,Wunderground v.1.15,2013-04-17 23:16:00,
2013-04-17 19:20:00,67.8,63.5,29.95,SE,130,2.0,4.0,86,0.00,,,0.51,Wunderground v.1.15,2013-04-17 23:20:00,
2013-04-17 19:23:00,67.8,63.5,29.95,ESE,119,3.0,8.0,86,0.00,,,0.51,Wunderground v.1.15,2013-04-17 23:23:00,
2013-04-17 19:25:00,67.8,63.5,29.95,SE,124,3.0,8.0,86,0.00,,,0.52,Wunderground v.1.15,2013-04-17 23:25:00,
2013-04-17 19:26:00,67.8,63.5,29.95,ESE,121,4.0,8.0,86,0.00,,,0.52,Wunderground v.1.15,2013-04-17 23:26:00,
2013-04-17 19:27:00,67.8,63.5,29.95,ESE,113,4.0,8.0,86,0.00,,,0.52,Wunderground v.1.15,2013-04-17 23:27:00,
2013-04-17 19:29:00,67.8,63.5,29.95,ESE,117,5.0,8.0,86,0.00,,,0.52,Wunderground v.1.15,2013-04-17 23:29:00,
2013-04-17 19:31:00,67.8,63.5,29.93,SE,133,5.0,5.0,86,0.00,,,0.52,Wunderground v.1.15,2013-04-17 23:31:00,
2013-04-17 19:32:00,67.8,63.5,29.93,SE,133,5.0,6.0,86,0.00,,,0.52,Wunderground v.1.15,2013-04-17 23:32:00,
2013-04-17 19:33:00,67.8,63.5,29.93,ESE,104,4.0,6.0,86,0.00,,,0.52,Wunderground v.1.15,2013-04-17 23:33:00,
2013-04-17 19:37:00,67.9,63.6,29.93,SE,130,3.0,6.0,86,0.00,,,0.52,Wunderground v.1.15,2013-04-17 23:37:00,
2013-04-17 19:39:00,67.9,63.6,29.93,SSW,199,2.0,6.0,86,0.00,,,0.52,Wunderground v.1.15,2013-04-17 23:39:00,
2013-04-17 19:40:00,67.9,63.6,29.93,South,185,1.0,6.0,86,0.00,,,0.52,Wunderground v.1.15,2013-04-17 23:40:00,
2013-04-17 19:41:00,67.9,63.6,29.93,SSW,196,1.0,6.0,86,0.00,,,0.52,Wunderground v.1.15,2013-04-17 23:41:00,
2013-04-17 19:44:00,68.1,63.4,29.93,South,171,1.0,6.0,85,0.00,,,0.52,Wunderground v.1.15,2013-04-17 23:44:00,
2013-04-17 19:45:00,68.1,63.4,29.92,SSE,167,1.0,6.0,85,0.00,,,0.52,Wunderground v.1.15,2013-04-17 23:45:00,
2013-04-17 19:48:00,68.1,63.4,29.92,SSE,155,1.0,6.0,85,0.00,,,0.52,Wunderground v.1.15,2013-04-17 23:48:00,
2013-04-17 19:49:00,68.1,63.4,29.92,SSE,155,1.0,6.0,85,0.00,,,0.52,Wunderground v.1.15,2013-04-17 23:49:00,
2013-04-17 19:50:00,68.1,63.4,29.92,ESE,120,1.0,5.0,85,0.00,,,0.52,Wunderground v.1.15,2013-04-17 23:50:00,
2013-04-17 19:51:00,68.3,63.6,29.92,ESE,121,1.0,5.0,85,0.00,,,0.52,Wunderground v.1.15,2013-04-17 23:51:00,
2013-04-17 19:55:00,68.3,63.3,29.92,SE,137,1.0,6.0,84,0.00,,,0.52,Wunderground v.1.15,2013-04-17 23:55:00,
2013-04-17 19:56:00,68.3,63.3,29.92,SE,131,1.0,6.0,84,0.00,,,0.52,Wunderground v.1.15,2013-04-17 23:56:00,
2013-04-17 19:58:00,68.4,63.4,29.92,SE,138,2.0,6.0,84,0.00,,,0.52,Wunderground v.1.15,2013-04-17 23:58:00,
2013-04-17 20:00:00,68.3,63.3,29.91,SE,136,2.0,2.0,84,0.00,,,0.52,Wunderground v.1.15,2013-04-18 00:00:00,
2013-04-17 20:01:00,68.4,63.0,29.91,SE,137,2.0,2.0,83,0.00,,,0.52,Wunderground v.1.15,2013-04-18 00:01:00,
2013-04-17 20:03:00,68.4,63.0,29.91,ESE,119,2.0,5.0,83,0.00,,,0.52,Wunderground v.1.15,2013-04-18 00:03:00,
2013-04-17 20:04:00,68.4,63.0,29.91,ESE,121,2.0,5.0,83,0.00,,,0.52,Wunderground v.1.15,2013-04-18 00:04:00,
2013-04-17 20:06:00,68.3,62.9,29.91,ESE,123,2.0,5.0,83,0.00,,,0.52,Wunderground v.1.15,2013-04-18 00:06:00,
2013-04-17 20:08:00,68.3,62.9,29.91,SE,124,2.0,5.0,83,0.00,,,0.52,Wunderground v.1.15,2013-04-18 00:08:00,
2013-04-17 20:12:00,68.1,63.1,29.91,SE,128,1.0,1.0,84,0.00,,,0.52,Wunderground v.1.15,2013-04-18 00:12:00,
2013-04-17 20:13:00,68.1,63.1,29.91,SE,128,1.0,1.0,84,0.00,,,0.52,Wunderground v.1.15,2013-04-18 00:13:00,
2013-04-17 20:15:00,68.1,63.1,29.91,SSW,208,1.0,1.0,84,0.00,,,0.52,Wunderground v.1.15,2013-04-18 00:15:00,
2013-04-17 20:19:00,67.9,62.9,29.91,SSW,196,0.0,1.0,84,0.00,,,0.52,Wunderground v.1.15,2013-04-18 00:19:00,
2013-04-17 20:20:00,67.9,62.9,29.91,SSW,196,0.0,0.0,84,0.00,,,0.52,Wunderground v.1.15,2013-04-18 00:20:00,
2013-04-17 20:23:00,68.1,63.1,29.91,South,169,0.0,5.0,84,0.00,,,0.52,Wunderground v.1.15,2013-04-18 00:23:00,
2013-04-17 20:24:00,68.1,62.7,29.91,South,169,0.0,5.0,83,0.00,,,0.52,Wunderground v.1.15,2013-04-18 00:24:00,
2013-04-17 20:25:00,68.1,62.7,29.91,SSE,165,0.0,5.0,83,0.00,,,0.52,Wunderground v.1.15,2013-04-18 00:25:00,
2013-04-17 20:26:00,68.1,62.7,29.91,SSE,151,1.0,5.0,83,0.00,,,0.52,Wunderground v.1.15,2013-04-18 00:26:00,
2013-04-17 20:30:00,68.3,62.6,29.90,SE,128,2.0,2.0,82,0.00,,,0.52,Wunderground v.1.15,2013-04-18 00:30:00,
2013-04-17 20:32:00,68.3,62.2,29.90,South,174,2.0,2.0,81,0.00,,,0.52,Wunderground v.1.15,2013-04-18 00:32:00,
2013-04-17 20:33:00,68.3,62.2,29.90,South,174,1.0,2.0,81,0.00,,,0.52,Wunderground v.1.15,2013-04-18 00:33:00,
2013-04-17 20:36:00,68.4,62.3,29.90,SE,131,1.0,2.0,81,0.00,,,0.52,Wunderground v.1.15,2013-04-18 00:36:00,
2013-04-17 20:37:00,68.4,62.3,29.90,SE,131,1.0,2.0,81,0.00,,,0.52,Wunderground v.1.15,2013-04-18 00:37:00,
2013-04-17 20:38:00,68.4,62.3,29.90,SE,137,1.0,2.0,81,0.00,,,0.52,Wunderground v.1.15,2013-04-18 00:38:00,
2013-04-17 20:39:00,68.4,62.0,29.90,SE,127,1.0,2.0,80,0.00,,,0.52,Wunderground v.1.15,2013-04-18 00:39:00,
2013-04-17 20:40:00,68.4,62.0,29.90,SSE,158,1.0,1.0,80,0.00,,,0.52,Wunderground v.1.15,2013-04-18 00:40:00,
2013-04-17 20:42:00,68.4,62.0,29.90,SE,126,1.0,3.0,80,0.00,,,0.52,Wunderground v.1.15,2013-04-18 00:42:00,
2013-04-17 20:43:00,68.6,62.2,29.90,SE,145,1.0,3.0,80,0.00,,,0.52,Wunderground v.1.15,2013-04-18 00:43:00,
2013-04-17 20:45:00,68.4,62.0,29.90,ESE,123,1.0,4.0,80,0.00,,,0.52,Wunderground v.1.15,2013-04-18 00:45:00,
2013-04-17 20:46:00,68.4,62.0,29.90,SSW,196,1.0,4.0,80,0.00,,,0.52,Wunderground v.1.15,2013-04-18 00:46:00,
2013-04-17 20:49:00,68.4,62.0,29.90,SE,141,2.0,5.0,80,0.00,,,0.52,Wunderground v.1.15,2013-04-18 00:49:00,
2013-04-17 20:50:00,68.4,62.0,29.90,SSE,154,2.0,3.0,80,0.00,,,0.52,Wunderground v.1.15,2013-04-18 00:50:00,
2013-04-17 20:51:00,68.6,62.2,29.90,SSE,148,2.0,3.0,80,0.00,,,0.52,Wunderground v.1.15,2013-04-18 00:51:00,
2013-04-17 20:54:00,68.6,61.8,29.90,SSE,150,1.0,3.0,79,0.00,,,0.52,Wunderground v.1.15,2013-04-18 00:54:00,
2013-04-17 20:56:00,68.4,61.6,29.90,SSE,150,1.0,3.0,79,0.00,,,0.52,Wunderground v.1.15,2013-04-18 00:56:00,
2013-04-17 20:57:00,68.4,61.6,29.90,SSE,150,1.0,3.0,79,0.00,,,0.52,Wunderground v.1.15,2013-04-18 00:57:00,
2013-04-17 20:59:00,68.4,61.6,29.90,SSE,157,0.0,3.0,79,0.00,,,0.52,Wunderground v.1.15,2013-04-18 00:59:00,
2013-04-17 21:00:00,68.4,61.6,29.90,SSW,195,0.0,0.0,79,0.00,,,0.52,Wunderground v.1.15,2013-04-18 01:00:00,
2013-04-17 21:03:00,68.4,61.6,29.90,SSW,195,0.0,0.0,79,0.00,,,0.52,Wunderground v.1.15,2013-04-18 01:03:00,
2013-04-17 21:05:00,68.4,61.6,29.90,SSW,195,0.0,0.0,79,0.00,,,0.52,Wunderground v.1.15,2013-04-18 01:05:00,
2013-04-17 21:06:00,68.4,61.6,29.90,SSW,195,0.0,0.0,79,0.00,,,0.52,Wunderground v.1.15,2013-04-18 01:06:00,
2013-04-17 21:07:00,68.4,61.6,29.90,SSW,195,0.0,0.0,79,0.00,,,0.52,Wunderground v.1.15,2013-04-18 01:07:00,
2013-04-17 21:08:00,68.3,61.5,29.90,SSW,195,0.0,0.0,79,0.00,,,0.52,Wunderground v.1.15,2013-04-18 01:08:00,
2013-04-17 21:09:00,68.3,61.5,29.90,SSW,195,0.0,0.0,79,0.00,,,0.52,Wunderground v.1.15,2013-04-18 01:09:00,
2013-04-17 21:13:00,68.3,61.5,29.90,SSW,200,0.0,0.0,79,0.00,,,0.52,Wunderground v.1.15,2013-04-18 01:13:00,
2013-04-17 21:14:00,68.3,61.5,29.90,SSW,200,0.0,0.0,79,0.00,,,0.52,Wunderground v.1.15,2013-04-18 01:14:00,
2013-04-17 21:15:00,68.3,61.5,29.91,SSW,200,0.0,0.0,79,0.00,,,0.52,Wunderground v.1.15,2013-04-18 01:15:00,
2013-04-17 21:19:00,68.1,61.7,29.91,South,191,0.0,0.0,80,0.00,,,0.52,Wunderground v.1.15,2013-04-18 01:19:00,
2013-04-17 21:20:00,68.1,61.7,29.91,South,191,0.0,0.0,80,0.00,,,0.52,Wunderground v.1.15,2013-04-18 01:20:00,
2013-04-17 21:21:00,67.9,61.5,29.91,South,191,0.0,0.0,80,0.00,,,0.52,Wunderground v.1.15,2013-04-18 01:21:00,
2013-04-17 21:22:00,67.9,61.5,29.91,South,191,0.0,0.0,80,0.00,,,0.52,Wunderground v.1.15,2013-04-18 01:22:00,
2013-04-17 21:25:00,67.6,61.6,29.91,South,191,0.0,0.0,81,0.00,,,0.52,Wunderground v.1.15,2013-04-18 01:25:00,
2013-04-17 21:27:00,67.6,61.6,29.91,South,191,0.0,0.0,81,0.00,,,0.52,Wunderground v.1.15,2013-04-18 01:27:00,
2013-04-17 21:28:00,67.4,61.4,29.91,South,191,0.0,0.0,81,0.00,,,0.52,Wunderground v.1.15,2013-04-18 01:28:00,
2013-04-17 21:29:00,67.4,61.4,29.91,South,191,0.0,0.0,81,0.00,,,0.52,Wunderground v.1.15,2013-04-18 01:29:00,
2013-04-17 21:33:00,67.3,61.3,29.90,SSE,152,0.0,0.0,81,0.00,,,0.52,Wunderground v.1.15,2013-04-18 01:33:00,
2013-04-17 21:34:00,67.3,61.3,29.90,SE,141,0.0,3.0,81,0.00,,,0.52,Wunderground v.1.15,2013-04-18 01:34:00,
2013-04-17 21:35:00,67.3,61.3,29.90,SE,141,0.0,3.0,81,0.00,,,0.52,Wunderground v.1.15,2013-04-18 01:35:00,
2013-04-17 21:36:00,67.1,61.1,29.90,SE,141,1.0,3.0,81,0.00,,,0.52,Wunderground v.1.15,2013-04-18 01:36:00,
2013-04-17 21:38:00,67.1,61.4,29.90,SE,141,1.0,3.0,82,0.00,,,0.52,Wunderground v.1.15,2013-04-18 01:38:00,
2013-04-17 21:40:00,66.9,60.9,29.90,SE,141,1.0,1.0,81,0.00,,,0.52,Wunderground v.1.15,2013-04-18 01:40:00,
2013-04-17 21:45:00,66.9,61.2,29.90,SE,141,1.0,2.0,82,0.00,,,0.52,Wunderground v.1.15,2013-04-18 01:45:00,
2013-04-17 21:46:00,66.9,61.2,29.90,SE,141,1.0,2.0,82,0.00,,,0.52,Wunderground v.1.15,2013-04-18 01:46:00,
2013-04-17 21:47:00,66.9,61.2,29.90,SE,141,1.0,2.0,82,0.00,,,0.52,Wunderground v.1.15,2013-04-18 01:47:00,
2013-04-17 21:48:00,66.9,61.2,29.90,SE,145,1.0,2.0,82,0.00,,,0.52,Wunderground v.1.15,2013-04-18 01:48:00,
2013-04-17 21:50:00,66.9,61.2,29.90,SE,145,1.0,1.0,82,0.00,,,0.52,Wunderground v.1.15,2013-04-18 01:50:00,
2013-04-17 21:52:00,66.9,61.2,29.90,SE,143,0.0,3.0,82,0.00,,,0.52,Wunderground v.1.15,2013-04-18 01:52:00,
2013-04-17 21:53:00,66.9,61.2,29.90,SE,137,1.0,4.0,82,0.00,,,0.52,Wunderground v.1.15,2013-04-18 01:53:00,
2013-04-17 21:54:00,66.9,61.2,29.90,SE,127,1.0,4.0,82,0.00,,,0.52,Wunderground v.1.15,2013-04-18 01:54:00,
2013-04-17 21:55:00,66.9,61.2,29.90,SE,127,1.0,4.0,82,0.00,,,0.52,Wunderground v.1.15,2013-04-18 01:55:00,
2013-04-17 21:58:00,66.8,61.1,29.90,SE,130,2.0,4.0,82,0.00,,,0.52,Wunderground v.1.15,2013-04-18 01:58:00,
2013-04-17 21:59:00,66.8,61.1,29.90,SSE,150,2.0,4.0,82,0.00,,,0.52,Wunderground v.1.15,2013-04-18 01:59:00,
2013-04-17 22:00:00,66.9,61.2,29.89,SSE,154,2.0,2.0,82,0.00,,,0.52,Wunderground v.1.15,2013-04-18 02:00:00,
2013-04-17 22:04:00,66.8,61.1,29.89,SE,131,2.0,4.0,82,0.00,,,0.52,Wunderground v.1.15,2013-04-18 02:04:00,
2013-04-17 22:05:00,66.8,61.1,29.89,SE,130,2.0,4.0,82,0.00,,,0.52,Wunderground v.1.15,2013-04-18 02:05:00,
2013-04-17 22:07:00,66.8,61.5,29.89,SSE,148,2.0,4.0,83,0.00,,,0.52,Wunderground v.1.15,2013-04-18 02:07:00,
2013-04-17 22:12:00,66.9,61.6,29.89,SSE,152,2.0,2.0,83,0.00,,,0.52,Wunderground v.1.15,2013-04-18 02:12:00,
2013-04-17 22:13:00,66.9,61.6,29.89,SE,141,2.0,3.0,83,0.00,,,0.52,Wunderground v.1.15,2013-04-18 02:13:00,
2013-04-17 22:15:00,67.1,61.4,29.90,South,171,2.0,5.0,82,0.00,,,0.52,Wunderground v.1.15,2013-04-18 02:15:00,
2013-04-17 22:20:00,67.1,61.4,29.90,SE,128,2.0,5.0,82,0.00,,,0.52,Wunderground v.1.15,2013-04-18 02:20:00,
2013-04-17 22:21:00,67.1,61.4,29.90,ESE,121,2.0,5.0,82,0.00,,,0.52,Wunderground v.1.15,2013-04-18 02:21:00,
2013-04-17 22:23:00,67.1,61.4,29.90,SSE,148,2.0,5.0,82,0.00,,,0.52,Wunderground v.1.15,2013-04-18 02:23:00,
2013-04-17 22:24:00,67.1,61.4,29.90,SSE,152,2.0,5.0,82,0.00,,,0.52,Wunderground v.1.15,2013-04-18 02:24:00,
2013-04-17 22:28:00,67.1,61.4,29.90,SE,138,1.0,5.0,82,0.00,,,0.52,Wunderground v.1.15,2013-04-18 02:28:00,
2013-04-17 22:29:00,67.1,61.4,29.90,SE,138,1.0,5.0,82,0.00,,,0.52,Wunderground v.1.15,2013-04-18 02:29:00,
2013-04-17 22:30:00,67.1,61.4,29.90,SE,138,1.0,1.0,82,0.00,,,0.52,Wunderground v.1.15,2013-04-18 02:30:00,
2013-04-17 22:32:00,66.9,61.2,29.90,SE,138,0.0,1.0,82,0.00,,,0.52,Wunderground v.1.15,2013-04-18 02:32:00,
2013-04-17 22:35:00,66.9,61.2,29.90,SE,140,0.0,1.0,82,0.00,,,0.52,Wunderground v.1.15,2013-04-18 02:35:00,
2013-04-17 22:36:00,66.9,61.2,29.90,SE,140,0.0,1.0,82,0.00,,,0.52,Wunderground v.1.15,2013-04-18 02:36:00,
2013-04-17 22:37:00,66.9,61.6,29.90,SE,140,0.0,1.0,83,0.00,,,0.52,Wunderground v.1.15,2013-04-18 02:37:00,
2013-04-17 22:38:00,66.9,61.6,29.90,South,169,0.0,1.0,83,0.00,,,0.52,Wunderground v.1.15,2013-04-18 02:38:00,
2013-04-17 22:39:00,66.9,61.6,29.90,SSE,157,0.0,1.0,83,0.00,,,0.52,Wunderground v.1.15,2013-04-18 02:39:00,
2013-04-17 22:42:00,66.9,61.2,29.90,SSE,154,0.0,0.0,82,0.00,,,0.52,Wunderground v.1.15,2013-04-18 02:42:00,
2013-04-17 22:44:00,66.9,61.2,29.90,SSE,161,0.0,0.0,82,0.00,,,0.52,Wunderground v.1.15,2013-04-18 02:44:00,
2013-04-17 22:45:00,66.8,61.1,29.90,SSE,167,0.0,0.0,82,0.00,,,0.52,Wunderground v.1.15,2013-04-18 02:45:00,
2013-04-17 22:49:00,66.6,61.3,29.90,SE,144,0.0,1.0,83,0.00,,,0.52,Wunderground v.1.15,2013-04-18 02:49:00,
2013-04-17 22:52:00,66.6,61.3,29.90,SE,143,1.0,5.0,83,0.00,,,0.52,Wunderground v.1.15,2013-04-18 02:52:00,
2013-04-17 22:53:00,66.6,61.3,29.90,SE,143,1.0,5.0,83,0.00,,,0.52,Wunderground v.1.15,2013-04-18 02:53:00,
2013-04-17 22:54:00,66.6,61.3,29.90,SE,143,1.0,5.0,83,0.00,,,0.52,Wunderground v.1.15,2013-04-18 02:54:00,
2013-04-17 22:57:00,66.5,61.2,29.90,SE,143,1.0,5.0,83,0.00,,,0.52,Wunderground v.1.15,2013-04-18 02:57:00,
2013-04-17 22:58:00,66.5,61.2,29.90,SE,124,1.0,5.0,83,0.00,,,0.52,Wunderground v.1.15,2013-04-18 02:58:00,
2013-04-17 22:59:00,66.5,61.2,29.90,SE,130,1.0,5.0,83,0.00,,,0.52,Wunderground v.1.15,2013-04-18 02:59:00,
2013-04-17 23:04:00,66.5,61.2,29.90,SE,128,1.0,4.0,83,0.00,,,0.52,Wunderground v.1.15,2013-04-18 03:04:00,
2013-04-17 23:05:00,66.5,61.2,29.90,SE,128,1.0,4.0,83,0.00,,,0.52,Wunderground v.1.15,2013-04-18 03:05:00,
2013-04-17 23:09:00,66.5,61.2,29.90,SE,137,1.0,4.0,83,0.00,,,0.52,Wunderground v.1.15,2013-04-18 03:09:00,
2013-04-17 23:10:00,66.5,61.2,29.90,SE,130,1.0,5.0,83,0.00,,,0.52,Wunderground v.1.15,2013-04-18 03:10:00,
2013-04-17 23:11:00,66.5,61.2,29.90,SE,138,2.0,5.0,83,0.00,,,0.52,Wunderground v.1.15,2013-04-18 03:11:00,
2013-04-17 23:12:00,66.5,61.2,29.90,ESE,117,2.0,5.0,83,0.00,,,0.52,Wunderground v.1.15,2013-04-18 03:12:00,
2013-04-17 23:16:00,66.5,61.2,29.88,SE,131,2.0,5.0,83,0.00,,,0.52,Wunderground v.1.15,2013-04-18 03:16:00,
2013-04-17 23:18:00,66.5,61.2,29.88,SE,130,2.0,5.0,83,0.00,,,0.52,Wunderground v.1.15,2013-04-18 03:18:00,
2013-04-17 23:19:00,66.5,61.2,29.88,SE,136,2.0,5.0,83,0.00,,,0.52,Wunderground v.1.15,2013-04-18 03:19:00,
2013-04-17 23:21:00,66.6,61.3,29.88,SSE,161,2.0,2.0,83,0.00,,,0.52,Wunderground v.1.15,2013-04-18 03:21:00,
2013-04-17 23:22:00,66.6,61.3,29.88,SSE,161,2.0,2.0,83,0.00,,,0.52,Wunderground v.1.15,2013-04-18 03:22:00,
2013-04-17 23:23:00,66.8,61.5,29.88,South,184,2.0,3.0,83,0.00,,,0.52,Wunderground v.1.15,2013-04-18 03:23:00,
2013-04-17 23:26:00,66.8,61.5,29.88,SSE,155,2.0,3.0,83,0.00,,,0.52,Wunderground v.1.15,2013-04-18 03:26:00,
2013-04-17 23:27:00,66.6,60.9,29.88,SE,134,2.0,3.0,82,0.00,,,0.52,Wunderground v.1.15,2013-04-18 03:27:00,
2013-04-17 23:29:00,66.6,61.3,29.88,SSE,148,2.0,3.0,83,0.00,,,0.52,Wunderground v.1.15,2013-04-18 03:29:00,
2013-04-17 23:30:00,66.6,60.9,29.88,SSE,148,2.0,2.0,82,0.00,,,0.52,Wunderground v.1.15,2013-04-18 03:30:00,
2013-04-17 23:31:00,66.6,60.9,29.88,SSE,148,2.0,2.0,82,0.00,,,0.52,Wunderground v.1.15,2013-04-18 03:31:00,
2013-04-17 23:32:00,66.6,61.3,29.88,South,169,2.0,2.0,83,0.00,,,0.52,Wunderground v.1.15,2013-04-18 03:32:00,
2013-04-17 23:35:00,66.5,61.2,29.88,SE,124,2.0,3.0,83,0.00,,,0.52,Wunderground v.1.15,2013-04-18 03:35:00,
2013-04-17 23:37:00,66.3,61.0,29.88,SE,124,2.0,4.0,83,0.00,,,0.52,Wunderground v.1.15,2013-04-18 03:37:00,
2013-04-17 23:40:00,66.1,60.8,29.88,ESE,120,2.0,2.0,83,0.00,,,0.52,Wunderground v.1.15,2013-04-18 03:40:00,
2013-04-17 23:43:00,66.1,60.8,29.88,ESE,120,3.0,5.0,83,0.00,,,0.52,Wunderground v.1.15,2013-04-18 03:43:00,
2013-04-17 23:46:00,66.1,60.8,29.87,ESE,120,2.0,5.0,83,0.00,,,0.52,Wunderground v.1.15,2013-04-18 03:46:00,
2013-04-17 23:48:00,66.1,60.8,29.87,SE,136,2.0,5.0,83,0.00,,,0.52,Wunderground v.1.15,2013-04-18 03:48:00,
2013-04-17 23:50:00,66.1,60.8,29.87,ESE,123,2.0,3.0,83,0.00,,,0.52,Wunderground v.1.15,2013-04-18 03:50:00,
2013-04-17 23:53:00,66.1,60.8,29.87,ESE,120,3.0,6.0,83,0.00,,,0.52,Wunderground v.1.15,2013-04-18 03:53:00,
2013-04-17 23:54:00,66.1,60.8,29.87,ESE,121,3.0,6.0,83,0.00,,,0.52,Wunderground v.1.15,2013-04-18 03:54:00,
2013-04-17 23:59:00,66.1,60.8,29.87,ESE,117,3.0,6.0,83,0.00,,,0.52,Wunderground v.1.15,2013-04-18 03:59:00,